UAL917 KSFO-NZAA
Flight info
| Callsign | UAL917 |
|---|---|
| Flight time | N/A |
| Altitude | 32000 |
| Route | GNNRR3 ALCOA R463 ALLBE DCT BARAZ DCT 30N138W/N0500F340 25N143W 20N148W 15N151W 10N155W 05N159W/N0503F360 00N163W DCT WACOS DCT 05S166W 10S169W DCT BIGEK/N0499F380 DCT 20S175W 25S178W 30S179E DCT ELPAK |
| Aircraft | B789/H-SDE1E2E3FGHIJ2J3J4J5M1RWXY/LB1D1 |
Departure
| Time | 2026-05-05 12:10 |
|---|---|
| Airport | San Francisco International Airport (KSFO) |
Arrival
| Time | N/A |
|---|---|
| Airport | Auckland International Airport (NZAA) |
| Time | Latitude | Longitude | Altitude | Speed | Heading |
|---|---|---|---|---|---|
| 2026-05-05 12:00 | 37.61927 | -122.39321 | 23 ft | 0 kts | 208° |
| 2026-05-05 12:00 | 37.61930 | -122.39320 | 31 ft | 3 kts | 210° |
| 2026-05-05 12:01 | 37.61953 | -122.39289 | 29 ft | 4 kts | 252° |
| 2026-05-05 12:01 | 37.61957 | -122.39267 | 27 ft | 4 kts | 266° |
| 2026-05-05 12:01 | 37.61956 | -122.39234 | 27 ft | 4 kts | 279° |
| 2026-05-05 12:01 | 37.61948 | -122.39189 | 25 ft | 4 kts | 288° |
| 2026-05-05 12:02 | 37.61942 | -122.39168 | 27 ft | 4 kts | 291° |
| 2026-05-05 12:02 | 37.61938 | -122.39153 | 22 ft | 0 kts | 292° |
| 2026-05-05 12:04 | 37.61951 | -122.39189 | 24 ft | 10 kts | 294° |
| 2026-05-05 12:04 | 37.61996 | -122.39301 | 25 ft | 18 kts | 307° |
| 2026-05-05 12:04 | 37.62088 | -122.39301 | 21 ft | 15 kts | 24° |
| 2026-05-05 12:04 | 37.62200 | -122.39225 | 20 ft | 19 kts | 29° |
| 2026-05-05 12:05 | 37.62299 | -122.39132 | 21 ft | 15 kts | 58° |
| 2026-05-05 12:05 | 37.62326 | -122.39011 | 20 ft | 14 kts | 74° |
| 2026-05-05 12:05 | 37.62323 | -122.38883 | 25 ft | 16 kts | 116° |
| 2026-05-05 12:05 | 37.62261 | -122.38732 | 24 ft | 22 kts | 118° |
| 2026-05-05 12:06 | 37.62181 | -122.38546 | 28 ft | 26 kts | 116° |
| 2026-05-05 12:06 | 37.62091 | -122.38323 | 27 ft | 31 kts | 114° |
| 2026-05-05 12:06 | 37.61982 | -122.38064 | 26 ft | 36 kts | 118° |
| 2026-05-05 12:06 | 37.61823 | -122.37847 | 24 ft | 33 kts | 120° |
| 2026-05-05 12:07 | 37.61739 | -122.37579 | 28 ft | 35 kts | 110° |
| 2026-05-05 12:07 | 37.61627 | -122.37292 | 28 ft | 37 kts | 118° |
| 2026-05-05 12:07 | 37.61504 | -122.37002 | 28 ft | 39 kts | 120° |
| 2026-05-05 12:07 | 37.61340 | -122.36717 | 29 ft | 41 kts | 118° |
| 2026-05-05 12:08 | 37.61200 | -122.36387 | 26 ft | 43 kts | 117° |
| 2026-05-05 12:08 | 37.61104 | -122.36080 | 28 ft | 22 kts | 92° |
| 2026-05-05 12:08 | 37.61106 | -122.35958 | 27 ft | 10 kts | 78° |
| 2026-05-05 12:08 | 37.61169 | -122.35893 | 27 ft | 13 kts | 1° |
| 2026-05-05 12:09 | 37.61225 | -122.35961 | 25 ft | 13 kts | 296° |
| 2026-05-05 12:09 | 37.61357 | -122.36283 | 18 ft | 72 kts | 298° |
| 2026-05-05 12:09 | 37.61683 | -122.37058 | 30 ft | 127 kts | 298° |
| 2026-05-05 12:09 | 37.62180 | -122.38227 | 37 ft | 172 kts | 297° |
| 2026-05-05 12:10 | 37.62776 | -122.39526 | 523 ft | 167 kts | 298° |
| 2026-05-05 12:10 | 37.63391 | -122.40828 | 889 ft | 181 kts | 299° |
| 2026-05-05 12:10 | 37.64044 | -122.42245 | 1297 ft | 197 kts | 299° |
| 2026-05-05 12:10 | 37.64770 | -122.43851 | 1427 ft | 227 kts | 299° |
| 2026-05-05 12:11 | 37.65334 | -122.45753 | 1415 ft | 243 kts | 274° |
| 2026-05-05 12:11 | 37.65338 | -122.47965 | 1842 ft | 255 kts | 271° |
| 2026-05-05 12:11 | 37.65374 | -122.50171 | 2885 ft | 252 kts | 274° |
| 2026-05-05 12:11 | 37.65518 | -122.52414 | 3488 ft | 266 kts | 276° |
| 2026-05-05 12:12 | 37.65714 | -122.54848 | 3790 ft | 291 kts | 276° |
| 2026-05-05 12:12 | 37.65896 | -122.57437 | 4575 ft | 297 kts | 276° |
| 2026-05-05 12:12 | 37.66065 | -122.60068 | 5337 ft | 305 kts | 276° |
| 2026-05-05 12:12 | 37.66242 | -122.62763 | 6090 ft | 311 kts | 276° |
| 2026-05-05 12:13 | 37.66429 | -122.65525 | 6815 ft | 319 kts | 277° |
| 2026-05-05 12:13 | 37.66617 | -122.68327 | 7532 ft | 324 kts | 277° |
| 2026-05-05 12:13 | 37.66807 | -122.71191 | 8236 ft | 330 kts | 278° |
| 2026-05-05 12:13 | 37.67000 | -122.74106 | 8949 ft | 336 kts | 278° |
| 2026-05-05 12:14 | 37.67195 | -122.77066 | 9668 ft | 342 kts | 278° |
| 2026-05-05 12:14 | 37.67391 | -122.80045 | 10312 ft | 347 kts | 278° |
| 2026-05-05 12:14 | 37.67591 | -122.83112 | 10943 ft | 353 kts | 278° |
| 2026-05-05 12:14 | 37.67793 | -122.86221 | 11563 ft | 359 kts | 278° |
| 2026-05-05 12:15 | 37.67998 | -122.89381 | 12212 ft | 363 kts | 278° |
| 2026-05-05 12:15 | 37.68205 | -122.92584 | 12843 ft | 369 kts | 278° |
| 2026-05-05 12:15 | 37.68413 | -122.95831 | 13492 ft | 373 kts | 278° |
| 2026-05-05 12:15 | 37.68624 | -122.99122 | 14105 ft | 378 kts | 278° |
| 2026-05-05 12:16 | 37.68834 | -123.02433 | 14762 ft | 379 kts | 278° |
| 2026-05-05 12:16 | 37.69044 | -123.05756 | 15394 ft | 381 kts | 278° |
| 2026-05-05 12:16 | 37.69257 | -123.09125 | 16021 ft | 383 kts | 278° |
| 2026-05-05 12:16 | 37.69470 | -123.12492 | 16629 ft | 386 kts | 278° |
| 2026-05-05 12:17 | 37.69682 | -123.15885 | 17247 ft | 388 kts | 279° |
| 2026-05-05 12:17 | 37.69894 | -123.19291 | 17828 ft | 391 kts | 279° |
| 2026-05-05 12:17 | 37.70104 | -123.22687 | 18399 ft | 394 kts | 279° |
| 2026-05-05 12:17 | 37.70320 | -123.26189 | 18886 ft | 397 kts | 279° |
| 2026-05-05 12:18 | 37.70532 | -123.29635 | 19363 ft | 400 kts | 279° |
| 2026-05-05 12:18 | 37.70747 | -123.33151 | 19831 ft | 403 kts | 279° |
| 2026-05-05 12:18 | 37.70962 | -123.36690 | 20294 ft | 406 kts | 279° |
| 2026-05-05 12:18 | 37.71177 | -123.40257 | 20739 ft | 409 kts | 279° |
| 2026-05-05 12:19 | 37.71394 | -123.43859 | 21185 ft | 412 kts | 279° |
| 2026-05-05 12:19 | 37.71611 | -123.47485 | 21641 ft | 415 kts | 279° |
| 2026-05-05 12:19 | 37.71829 | -123.51142 | 22066 ft | 418 kts | 279° |
| 2026-05-05 12:19 | 37.72047 | -123.54814 | 22497 ft | 421 kts | 279° |
| 2026-05-05 12:20 | 37.72265 | -123.58520 | 22894 ft | 424 kts | 279° |
| 2026-05-05 12:20 | 37.72484 | -123.62256 | 23301 ft | 427 kts | 279° |
| 2026-05-05 12:20 | 37.72703 | -123.66012 | 23690 ft | 430 kts | 279° |
| 2026-05-05 12:20 | 37.72922 | -123.69795 | 24007 ft | 433 kts | 279° |
| 2026-05-05 12:21 | 37.73141 | -123.73602 | 24331 ft | 435 kts | 279° |
| 2026-05-05 12:21 | 37.73357 | -123.77373 | 24635 ft | 438 kts | 279° |
| 2026-05-05 12:21 | 37.73577 | -123.81225 | 24950 ft | 440 kts | 279° |
| 2026-05-05 12:21 | 37.73796 | -123.85090 | 25254 ft | 443 kts | 279° |
| 2026-05-05 12:22 | 37.74016 | -123.88996 | 25549 ft | 445 kts | 279° |
| 2026-05-05 12:22 | 37.74236 | -123.92920 | 25851 ft | 448 kts | 279° |
| 2026-05-05 12:22 | 37.74455 | -123.96858 | 26138 ft | 451 kts | 279° |
| 2026-05-05 12:22 | 37.74674 | -124.00818 | 26418 ft | 453 kts | 279° |
| 2026-05-05 12:23 | 37.74893 | -124.04803 | 26719 ft | 455 kts | 279° |
| 2026-05-05 12:23 | 37.75112 | -124.08807 | 26997 ft | 458 kts | 279° |
| 2026-05-05 12:23 | 37.75331 | -124.12832 | 27271 ft | 460 kts | 278° |
| 2026-05-05 12:23 | 37.75546 | -124.16819 | 27537 ft | 462 kts | 278° |
| 2026-05-05 12:24 | 37.75763 | -124.20874 | 27800 ft | 464 kts | 278° |
| 2026-05-05 12:24 | 37.75981 | -124.24962 | 28075 ft | 466 kts | 278° |
| 2026-05-05 12:24 | 37.76198 | -124.29059 | 28339 ft | 468 kts | 278° |
| 2026-05-05 12:24 | 37.76414 | -124.33173 | 28585 ft | 471 kts | 278° |
| 2026-05-05 12:25 | 37.76630 | -124.37317 | 28835 ft | 473 kts | 278° |
| 2026-05-05 12:25 | 37.76846 | -124.41471 | 29096 ft | 475 kts | 278° |
| 2026-05-05 12:25 | 37.77061 | -124.45647 | 29322 ft | 477 kts | 278° |
| 2026-05-05 12:25 | 37.77275 | -124.49837 | 29564 ft | 479 kts | 278° |
| 2026-05-05 12:26 | 37.77489 | -124.54040 | 29794 ft | 481 kts | 278° |
| 2026-05-05 12:26 | 37.77700 | -124.58228 | 30016 ft | 483 kts | 278° |
| 2026-05-05 12:26 | 37.77912 | -124.62466 | 30235 ft | 484 kts | 278° |
| 2026-05-05 12:26 | 37.78124 | -124.66730 | 30409 ft | 487 kts | 278° |
| 2026-05-05 12:27 | 37.78335 | -124.71003 | 30600 ft | 489 kts | 278° |
| 2026-05-05 12:27 | 37.78545 | -124.75293 | 30782 ft | 490 kts | 278° |
| 2026-05-05 12:27 | 37.78758 | -124.79662 | 30953 ft | 492 kts | 278° |
| 2026-05-05 12:27 | 37.78964 | -124.83939 | 31131 ft | 494 kts | 278° |
| 2026-05-05 12:28 | 37.79172 | -124.88284 | 31302 ft | 496 kts | 278° |
| 2026-05-05 12:28 | 37.79380 | -124.92652 | 31472 ft | 498 kts | 278° |
| 2026-05-05 12:28 | 37.79586 | -124.97035 | 31646 ft | 500 kts | 278° |
| 2026-05-05 12:28 | 37.79792 | -125.01436 | 31799 ft | 502 kts | 278° |
| 2026-05-05 12:29 | 37.79996 | -125.05838 | 31968 ft | 503 kts | 278° |
| 2026-05-05 12:29 | 37.80201 | -125.10274 | 32051 ft | 507 kts | 278° |
| 2026-05-05 12:29 | 37.80605 | -125.19189 | 32046 ft | 507 kts | 278° |
| 2026-05-05 12:30 | 37.81002 | -125.28073 | 32045 ft | 505 kts | 278° |
| 2026-05-05 12:30 | 37.81390 | -125.36876 | 32043 ft | 505 kts | 278° |
| 2026-05-05 12:31 | 37.81774 | -125.45789 | 32048 ft | 504 kts | 277° |
| 2026-05-05 12:31 | 37.82149 | -125.54602 | 32053 ft | 505 kts | 277° |
| 2026-05-05 12:32 | 37.82518 | -125.63470 | 32048 ft | 505 kts | 277° |
| 2026-05-05 12:32 | 37.82881 | -125.72341 | 32054 ft | 505 kts | 277° |
| 2026-05-05 12:33 | 37.83146 | -125.81228 | 32054 ft | 508 kts | 269° |
| 2026-05-05 12:33 | 37.82627 | -125.85666 | 32076 ft | 514 kts | 257° |
| 2026-05-05 12:33 | 37.81542 | -125.89993 | 32062 ft | 517 kts | 253° |
| 2026-05-05 12:34 | 37.79158 | -125.98580 | 32071 ft | 517 kts | 253° |
| 2026-05-05 12:34 | 37.76795 | -126.07153 | 32077 ft | 517 kts | 253° |
| 2026-05-05 12:35 | 37.74419 | -126.15722 | 32074 ft | 516 kts | 253° |
| 2026-05-05 12:35 | 37.72037 | -126.24281 | 32072 ft | 516 kts | 253° |
| 2026-05-05 12:36 | 37.69671 | -126.32766 | 32072 ft | 516 kts | 253° |
| 2026-05-05 12:36 | 37.67280 | -126.41301 | 32069 ft | 515 kts | 253° |
| 2026-05-05 12:37 | 37.64887 | -126.49828 | 32064 ft | 515 kts | 252° |
| 2026-05-05 12:37 | 37.62492 | -126.58324 | 32067 ft | 514 kts | 252° |
| 2026-05-05 12:38 | 37.60094 | -126.66809 | 32072 ft | 513 kts | 252° |
| 2026-05-05 12:38 | 37.57688 | -126.75291 | 32070 ft | 514 kts | 252° |
| 2026-05-05 12:39 | 37.55276 | -126.83772 | 32071 ft | 513 kts | 252° |
| 2026-05-05 12:39 | 37.52871 | -126.92203 | 32069 ft | 514 kts | 252° |
| 2026-05-05 12:40 | 37.50370 | -127.00622 | 32083 ft | 514 kts | 244° |
| 2026-05-05 12:40 | 37.46996 | -127.08585 | 32085 ft | 516 kts | 243° |
| 2026-05-05 12:41 | 37.43608 | -127.16543 | 32095 ft | 516 kts | 243° |
| 2026-05-05 12:41 | 37.40218 | -127.24499 | 32100 ft | 516 kts | 243° |
| 2026-05-05 12:42 | 37.36816 | -127.32447 | 32098 ft | 515 kts | 243° |
| 2026-05-05 12:42 | 37.33447 | -127.40315 | 32100 ft | 515 kts | 243° |
| 2026-05-05 12:43 | 37.30046 | -127.48224 | 32092 ft | 514 kts | 243° |
| 2026-05-05 12:43 | 37.26640 | -127.56134 | 32094 ft | 514 kts | 243° |
| 2026-05-05 12:44 | 37.23231 | -127.64027 | 32096 ft | 514 kts | 243° |
| 2026-05-05 12:44 | 37.19820 | -127.71907 | 32093 ft | 514 kts | 242° |
| 2026-05-05 12:45 | 37.16418 | -127.79747 | 32093 ft | 514 kts | 242° |
| 2026-05-05 12:45 | 37.12995 | -127.87617 | 32091 ft | 513 kts | 242° |
| 2026-05-05 12:46 | 37.09573 | -127.95467 | 32092 ft | 512 kts | 242° |
| 2026-05-05 12:46 | 37.06149 | -128.03300 | 32097 ft | 512 kts | 242° |
| 2026-05-05 12:47 | 37.02747 | -128.11065 | 32094 ft | 512 kts | 242° |
| 2026-05-05 12:47 | 36.99318 | -128.18874 | 32099 ft | 512 kts | 242° |
| 2026-05-05 12:48 | 36.95885 | -128.26672 | 32103 ft | 512 kts | 242° |
| 2026-05-05 12:48 | 36.92449 | -128.34459 | 32106 ft | 511 kts | 242° |
| 2026-05-05 12:49 | 36.89010 | -128.42234 | 32103 ft | 511 kts | 242° |
| 2026-05-05 12:49 | 36.85570 | -128.49992 | 32105 ft | 510 kts | 242° |
| 2026-05-05 12:50 | 36.82711 | -128.56428 | 32108 ft | 510 kts | 242° |
| 2026-05-05 12:50 | 36.79263 | -128.64172 | 32105 ft | 510 kts | 242° |
| 2026-05-05 12:51 | 36.75813 | -128.71900 | 32116 ft | 509 kts | 242° |
| 2026-05-05 12:51 | 36.72362 | -128.79614 | 32108 ft | 509 kts | 241° |
| 2026-05-05 12:52 | 36.68907 | -128.87320 | 32106 ft | 509 kts | 241° |
| 2026-05-05 12:52 | 36.65448 | -128.95015 | 32116 ft | 509 kts | 241° |
| 2026-05-05 12:53 | 36.62007 | -129.02653 | 32118 ft | 509 kts | 241° |
| 2026-05-05 12:53 | 36.58542 | -129.10326 | 32115 ft | 508 kts | 241° |
| 2026-05-05 12:54 | 36.53335 | -129.21824 | 32118 ft | 508 kts | 241° |
| 2026-05-05 12:55 | 36.49863 | -129.29469 | 32116 ft | 507 kts | 241° |
| 2026-05-05 12:55 | 36.46390 | -129.37097 | 32120 ft | 507 kts | 241° |
| 2026-05-05 12:56 | 36.42913 | -129.44718 | 32122 ft | 507 kts | 240° |
| 2026-05-05 12:56 | 36.39430 | -129.52333 | 32123 ft | 507 kts | 240° |
| 2026-05-05 12:57 | 36.35951 | -129.59923 | 32123 ft | 505 kts | 240° |
| 2026-05-05 12:57 | 36.32476 | -129.67488 | 32126 ft | 505 kts | 240° |
| 2026-05-05 12:58 | 36.28994 | -129.75049 | 32128 ft | 504 kts | 240° |
| 2026-05-05 12:58 | 36.25535 | -129.82545 | 32130 ft | 504 kts | 240° |
| 2026-05-05 12:59 | 36.22053 | -129.90073 | 32134 ft | 504 kts | 240° |
| 2026-05-05 12:59 | 36.18568 | -129.97592 | 32132 ft | 504 kts | 240° |
| 2026-05-05 13:00 | 36.13331 | -130.08858 | 32133 ft | 502 kts | 240° |
| 2026-05-05 13:01 | 36.06355 | -130.23807 | 32138 ft | 501 kts | 240° |
| 2026-05-05 13:01 | 36.02867 | -130.31256 | 32139 ft | 500 kts | 240° |
| 2026-05-05 13:02 | 35.99402 | -130.38641 | 32151 ft | 499 kts | 240° |
| 2026-05-05 13:02 | 35.95907 | -130.46073 | 32164 ft | 499 kts | 240° |
| 2026-05-05 13:03 | 35.92419 | -130.53474 | 32155 ft | 498 kts | 240° |
| 2026-05-05 13:03 | 35.88931 | -130.60858 | 32160 ft | 497 kts | 240° |
| 2026-05-05 13:04 | 35.85441 | -130.68230 | 32155 ft | 497 kts | 240° |
| 2026-05-05 13:04 | 35.81959 | -130.75571 | 32159 ft | 495 kts | 240° |
| 2026-05-05 13:05 | 35.78505 | -130.82836 | 32148 ft | 494 kts | 240° |
| 2026-05-05 13:05 | 35.75026 | -130.90137 | 32156 ft | 494 kts | 240° |
| 2026-05-05 13:06 | 35.71544 | -130.97430 | 32153 ft | 493 kts | 240° |
| 2026-05-05 13:06 | 35.68072 | -131.04688 | 32154 ft | 492 kts | 240° |
| 2026-05-05 13:07 | 35.64598 | -131.11933 | 32149 ft | 491 kts | 240° |
| 2026-05-05 13:07 | 35.61123 | -131.19165 | 32163 ft | 490 kts | 240° |
| 2026-05-05 13:08 | 35.57676 | -131.26324 | 32168 ft | 489 kts | 240° |
| 2026-05-05 13:08 | 35.54211 | -131.33505 | 32164 ft | 488 kts | 241° |
| 2026-05-05 13:09 | 35.50752 | -131.40658 | 32167 ft | 486 kts | 241° |
| 2026-05-05 13:09 | 35.47300 | -131.47782 | 32163 ft | 486 kts | 241° |
| 2026-05-05 13:10 | 35.43842 | -131.54904 | 32168 ft | 485 kts | 241° |
| 2026-05-05 13:10 | 35.40383 | -131.62014 | 32173 ft | 484 kts | 241° |
| 2026-05-05 13:11 | 35.36957 | -131.69041 | 32171 ft | 483 kts | 241° |
| 2026-05-05 13:11 | 35.33490 | -131.76138 | 32175 ft | 482 kts | 241° |
| 2026-05-05 13:12 | 35.30062 | -131.83139 | 32174 ft | 480 kts | 242° |
| 2026-05-05 13:12 | 35.26622 | -131.90152 | 32174 ft | 478 kts | 242° |
| 2026-05-05 13:13 | 35.23194 | -131.97127 | 32173 ft | 477 kts | 242° |
| 2026-05-05 13:13 | 35.19790 | -132.04039 | 32172 ft | 476 kts | 242° |
| 2026-05-05 13:14 | 35.16372 | -132.10964 | 32176 ft | 475 kts | 242° |
| 2026-05-05 13:14 | 35.12955 | -132.17875 | 32177 ft | 474 kts | 242° |
| 2026-05-05 13:15 | 35.09542 | -132.24763 | 32178 ft | 473 kts | 242° |
| 2026-05-05 13:15 | 35.06132 | -132.31633 | 32178 ft | 472 kts | 242° |
| 2026-05-05 13:16 | 35.02732 | -132.38468 | 32178 ft | 471 kts | 243° |
| 2026-05-05 13:16 | 34.99349 | -132.45256 | 32180 ft | 470 kts | 243° |
| 2026-05-05 13:17 | 34.95947 | -132.52070 | 32184 ft | 470 kts | 243° |
| 2026-05-05 13:17 | 34.92546 | -132.58867 | 32182 ft | 469 kts | 243° |
| 2026-05-05 13:18 | 34.89147 | -132.65647 | 32197 ft | 468 kts | 243° |
| 2026-05-05 13:18 | 34.85746 | -132.72419 | 32198 ft | 468 kts | 243° |
| 2026-05-05 13:19 | 34.82342 | -132.79182 | 32194 ft | 468 kts | 244° |
| 2026-05-05 13:19 | 34.78972 | -132.85866 | 32190 ft | 466 kts | 244° |
| 2026-05-05 13:20 | 34.75573 | -132.92595 | 32194 ft | 466 kts | 244° |
| 2026-05-05 13:20 | 34.72183 | -132.99293 | 32195 ft | 464 kts | 244° |
| 2026-05-05 13:21 | 34.68793 | -133.05978 | 32196 ft | 463 kts | 244° |
| 2026-05-05 13:21 | 34.65403 | -133.12652 | 32196 ft | 464 kts | 244° |
| 2026-05-05 13:22 | 34.62024 | -133.19289 | 32196 ft | 464 kts | 244° |
| 2026-05-05 13:22 | 34.58624 | -133.25956 | 32195 ft | 464 kts | 244° |
| 2026-05-05 13:23 | 34.55227 | -133.32604 | 32197 ft | 463 kts | 244° |
| 2026-05-05 13:23 | 34.51824 | -133.39252 | 32202 ft | 463 kts | 243° |
| 2026-05-05 13:24 | 34.48423 | -133.45884 | 32203 ft | 463 kts | 243° |
| 2026-05-05 13:24 | 34.45042 | -133.52465 | 32202 ft | 463 kts | 243° |
| 2026-05-05 13:25 | 34.41637 | -133.59079 | 32202 ft | 462 kts | 243° |
| 2026-05-05 13:25 | 34.38231 | -133.65683 | 32204 ft | 461 kts | 243° |
| 2026-05-05 13:26 | 34.34829 | -133.72269 | 32205 ft | 461 kts | 243° |
| 2026-05-05 13:26 | 34.31426 | -133.78842 | 32206 ft | 461 kts | 243° |
| 2026-05-05 13:27 | 34.28022 | -133.85407 | 32206 ft | 461 kts | 243° |
| 2026-05-05 13:27 | 34.24606 | -133.91982 | 32210 ft | 462 kts | 243° |
| 2026-05-05 13:28 | 34.21203 | -133.98518 | 32210 ft | 462 kts | 243° |
| 2026-05-05 13:28 | 34.17781 | -134.05082 | 32212 ft | 461 kts | 243° |
| 2026-05-05 13:29 | 34.14360 | -134.11629 | 32210 ft | 460 kts | 243° |
| 2026-05-05 13:29 | 34.10940 | -134.18165 | 32210 ft | 460 kts | 242° |
| 2026-05-05 13:30 | 34.07511 | -134.24705 | 32215 ft | 460 kts | 242° |
| 2026-05-05 13:30 | 34.04084 | -134.31229 | 32212 ft | 460 kts | 242° |
| 2026-05-05 13:31 | 33.99825 | -134.36993 | 32260 ft | 473 kts | 223° |
| 2026-05-05 13:31 | 33.94674 | -134.41957 | 32231 ft | 474 kts | 223° |
| 2026-05-05 13:32 | 33.89506 | -134.46901 | 32230 ft | 474 kts | 223° |
| 2026-05-05 13:32 | 33.84341 | -134.51860 | 32238 ft | 474 kts | 223° |
| 2026-05-05 13:33 | 33.79172 | -134.56798 | 32228 ft | 474 kts | 223° |
| 2026-05-05 13:33 | 33.74006 | -134.61736 | 32227 ft | 474 kts | 223° |
| 2026-05-05 13:34 | 33.68839 | -134.66661 | 32227 ft | 473 kts | 223° |
| 2026-05-05 13:34 | 33.63677 | -134.71576 | 32234 ft | 473 kts | 223° |
| 2026-05-05 13:35 | 33.58556 | -134.76444 | 32225 ft | 473 kts | 223° |
| 2026-05-05 13:35 | 33.53403 | -134.81335 | 32226 ft | 473 kts | 224° |
| 2026-05-05 13:36 | 33.48239 | -134.86228 | 32222 ft | 474 kts | 224° |
| 2026-05-05 13:36 | 33.43067 | -134.91120 | 32224 ft | 474 kts | 224° |
| 2026-05-05 13:37 | 33.37888 | -134.96013 | 32228 ft | 474 kts | 224° |
| 2026-05-05 13:37 | 33.32714 | -135.00893 | 32228 ft | 473 kts | 224° |
| 2026-05-05 13:38 | 33.27542 | -135.05764 | 32224 ft | 475 kts | 224° |
| 2026-05-05 13:38 | 33.24939 | -135.08213 | 32380 ft | 477 kts | 224° |
| 2026-05-05 13:38 | 33.22331 | -135.10662 | 32642 ft | 477 kts | 224° |
| 2026-05-05 13:39 | 33.19721 | -135.13112 | 32885 ft | 477 kts | 224° |
| 2026-05-05 13:39 | 33.17999 | -135.14729 | 33052 ft | 477 kts | 224° |
| 2026-05-05 13:39 | 33.15389 | -135.17178 | 33291 ft | 476 kts | 224° |
| 2026-05-05 13:39 | 33.11901 | -135.20446 | 33603 ft | 476 kts | 225° |
| 2026-05-05 13:40 | 33.10175 | -135.22062 | 33755 ft | 476 kts | 225° |
| 2026-05-05 13:40 | 33.07567 | -135.24502 | 33976 ft | 476 kts | 225° |
| 2026-05-05 13:40 | 33.04956 | -135.26944 | 34196 ft | 477 kts | 225° |
| 2026-05-05 13:40 | 33.02338 | -135.29391 | 34232 ft | 480 kts | 225° |
| 2026-05-05 13:41 | 32.97087 | -135.34287 | 34231 ft | 477 kts | 225° |
| 2026-05-05 13:41 | 32.91866 | -135.39155 | 34233 ft | 476 kts | 225° |
| 2026-05-05 13:42 | 32.86643 | -135.44013 | 34231 ft | 476 kts | 225° |
| 2026-05-05 13:42 | 32.81458 | -135.48830 | 34230 ft | 476 kts | 225° |
| 2026-05-05 13:43 | 32.76227 | -135.53681 | 34230 ft | 476 kts | 225° |
| 2026-05-05 13:43 | 32.71000 | -135.58521 | 34232 ft | 477 kts | 225° |
| 2026-05-05 13:44 | 32.65765 | -135.63361 | 34230 ft | 477 kts | 225° |
| 2026-05-05 13:44 | 32.60536 | -135.68189 | 34235 ft | 477 kts | 224° |
| 2026-05-05 13:45 | 32.55298 | -135.73018 | 34237 ft | 476 kts | 224° |
| 2026-05-05 13:45 | 32.50068 | -135.77831 | 34239 ft | 476 kts | 224° |
| 2026-05-05 13:46 | 32.44834 | -135.82642 | 34240 ft | 476 kts | 224° |
| 2026-05-05 13:46 | 32.39633 | -135.87414 | 34238 ft | 475 kts | 224° |
| 2026-05-05 13:47 | 32.34398 | -135.92211 | 34231 ft | 475 kts | 224° |
| 2026-05-05 13:47 | 32.29170 | -135.96994 | 34236 ft | 475 kts | 224° |
| 2026-05-05 13:48 | 32.23944 | -136.01767 | 34239 ft | 473 kts | 224° |
| 2026-05-05 13:48 | 32.18725 | -136.06529 | 34241 ft | 474 kts | 224° |
| 2026-05-05 13:49 | 32.13501 | -136.11286 | 34239 ft | 474 kts | 224° |
| 2026-05-05 13:49 | 32.08303 | -136.16013 | 34242 ft | 475 kts | 224° |
| 2026-05-05 13:50 | 32.03068 | -136.20767 | 34243 ft | 475 kts | 224° |
| 2026-05-05 13:50 | 31.97798 | -136.25545 | 34237 ft | 474 kts | 224° |
| 2026-05-05 13:51 | 31.92606 | -136.30246 | 34235 ft | 474 kts | 224° |
| 2026-05-05 13:51 | 31.87381 | -136.34970 | 34240 ft | 473 kts | 224° |
| 2026-05-05 13:52 | 31.82165 | -136.39679 | 34247 ft | 472 kts | 223° |
| 2026-05-05 13:52 | 31.76952 | -136.44379 | 34243 ft | 472 kts | 223° |
| 2026-05-05 13:53 | 31.71733 | -136.49076 | 34241 ft | 472 kts | 223° |
| 2026-05-05 13:53 | 31.66515 | -136.53766 | 34246 ft | 471 kts | 223° |
| 2026-05-05 13:54 | 31.61343 | -136.58408 | 34254 ft | 471 kts | 223° |
| 2026-05-05 13:54 | 31.56137 | -136.63075 | 34249 ft | 470 kts | 223° |
| 2026-05-05 13:55 | 31.50935 | -136.67729 | 34248 ft | 470 kts | 223° |
| 2026-05-05 13:55 | 31.45745 | -136.72367 | 34243 ft | 469 kts | 223° |
| 2026-05-05 13:56 | 31.40542 | -136.77010 | 34237 ft | 469 kts | 223° |
| 2026-05-05 13:56 | 31.35352 | -136.81636 | 34240 ft | 468 kts | 223° |
| 2026-05-05 13:57 | 31.30202 | -136.86219 | 34243 ft | 468 kts | 223° |
| 2026-05-05 13:57 | 31.25019 | -136.90823 | 34243 ft | 467 kts | 223° |
| 2026-05-05 13:58 | 31.19836 | -136.95423 | 34241 ft | 467 kts | 223° |
| 2026-05-05 13:58 | 31.14652 | -137.00016 | 34239 ft | 467 kts | 223° |
| 2026-05-05 13:59 | 31.06892 | -137.06880 | 34245 ft | 466 kts | 222° |
| 2026-05-05 14:00 | 30.99998 | -137.12966 | 34240 ft | 466 kts | 222° |
| 2026-05-05 14:00 | 30.93972 | -137.18276 | 34241 ft | 466 kts | 222° |
| 2026-05-05 14:01 | 30.88789 | -137.22837 | 34233 ft | 466 kts | 222° |
| 2026-05-05 14:01 | 30.83620 | -137.27379 | 34242 ft | 465 kts | 222° |
| 2026-05-05 14:02 | 30.78451 | -137.31914 | 34248 ft | 465 kts | 222° |
| 2026-05-05 14:02 | 30.73288 | -137.36439 | 34242 ft | 465 kts | 222° |
| 2026-05-05 14:03 | 30.68120 | -137.40961 | 34243 ft | 464 kts | 222° |
| 2026-05-05 14:03 | 30.62959 | -137.45471 | 34237 ft | 464 kts | 222° |
| 2026-05-05 14:04 | 30.57798 | -137.49975 | 34247 ft | 464 kts | 222° |
| 2026-05-05 14:04 | 30.52671 | -137.54443 | 34241 ft | 464 kts | 221° |
| 2026-05-05 14:05 | 30.47507 | -137.58937 | 34237 ft | 464 kts | 221° |
| 2026-05-05 14:05 | 30.42339 | -137.63429 | 34245 ft | 464 kts | 221° |
| 2026-05-05 14:06 | 30.37163 | -137.67921 | 34237 ft | 464 kts | 221° |
| 2026-05-05 14:06 | 30.31988 | -137.72407 | 34240 ft | 465 kts | 221° |
| 2026-05-05 14:07 | 30.26830 | -137.76872 | 34242 ft | 465 kts | 221° |
| 2026-05-05 14:07 | 30.21648 | -137.81350 | 34240 ft | 464 kts | 221° |
| 2026-05-05 14:08 | 30.16468 | -137.85823 | 34243 ft | 464 kts | 221° |
| 2026-05-05 14:08 | 30.11285 | -137.90291 | 34241 ft | 465 kts | 221° |
| 2026-05-05 14:09 | 30.06094 | -137.94760 | 34239 ft | 465 kts | 221° |
| 2026-05-05 14:09 | 30.00899 | -137.99227 | 34249 ft | 465 kts | 221° |
| 2026-05-05 14:10 | 29.96129 | -138.04166 | 34254 ft | 463 kts | 227° |
| 2026-05-05 14:10 | 29.91346 | -138.09209 | 34256 ft | 473 kts | 227° |
| 2026-05-05 14:11 | 29.86474 | -138.14424 | 34259 ft | 482 kts | 227° |
| 2026-05-05 14:11 | 29.81487 | -138.19707 | 34261 ft | 490 kts | 227° |
| 2026-05-05 14:12 | 29.76460 | -138.25050 | 34248 ft | 492 kts | 227° |
| 2026-05-05 14:12 | 29.71422 | -138.30383 | 34256 ft | 492 kts | 226° |
| 2026-05-05 14:13 | 29.66387 | -138.35714 | 34257 ft | 492 kts | 226° |
| 2026-05-05 14:13 | 29.61381 | -138.41003 | 34252 ft | 492 kts | 226° |
| 2026-05-05 14:14 | 29.56339 | -138.46323 | 34251 ft | 492 kts | 226° |
| 2026-05-05 14:14 | 29.51295 | -138.51638 | 34245 ft | 492 kts | 226° |
| 2026-05-05 14:15 | 29.46240 | -138.56958 | 34248 ft | 492 kts | 226° |
| 2026-05-05 14:15 | 29.41193 | -138.62260 | 34245 ft | 492 kts | 226° |
| 2026-05-05 14:16 | 29.36149 | -138.67553 | 34241 ft | 492 kts | 226° |
| 2026-05-05 14:16 | 29.31100 | -138.72843 | 34236 ft | 492 kts | 226° |
| 2026-05-05 14:17 | 29.26081 | -138.78095 | 34232 ft | 492 kts | 226° |
| 2026-05-05 14:17 | 29.21025 | -138.83378 | 34231 ft | 492 kts | 226° |
| 2026-05-05 14:18 | 29.15966 | -138.88656 | 34232 ft | 492 kts | 226° |
| 2026-05-05 14:18 | 29.10909 | -138.93925 | 34229 ft | 492 kts | 226° |
| 2026-05-05 14:19 | 29.05838 | -138.99201 | 34241 ft | 492 kts | 226° |
| 2026-05-05 14:19 | 29.00773 | -139.04465 | 34233 ft | 492 kts | 225° |
| 2026-05-05 14:20 | 28.95701 | -139.09727 | 34234 ft | 493 kts | 225° |
| 2026-05-05 14:20 | 28.90617 | -139.14995 | 34229 ft | 493 kts | 225° |
| 2026-05-05 14:21 | 28.85568 | -139.20219 | 34232 ft | 493 kts | 225° |
| 2026-05-05 14:21 | 28.80492 | -139.25465 | 34233 ft | 492 kts | 225° |
| 2026-05-05 14:22 | 28.75411 | -139.30708 | 34230 ft | 492 kts | 225° |
| 2026-05-05 14:22 | 28.70326 | -139.35949 | 34228 ft | 492 kts | 225° |
| 2026-05-05 14:23 | 28.65249 | -139.41173 | 34227 ft | 491 kts | 225° |
| 2026-05-05 14:23 | 28.60174 | -139.46389 | 34227 ft | 491 kts | 225° |
| 2026-05-05 14:24 | 28.55097 | -139.51599 | 34225 ft | 491 kts | 225° |
| 2026-05-05 14:24 | 28.50027 | -139.56795 | 34224 ft | 491 kts | 225° |
| 2026-05-05 14:25 | 28.44990 | -139.61951 | 34221 ft | 491 kts | 225° |
| 2026-05-05 14:25 | 28.39912 | -139.67141 | 34220 ft | 491 kts | 225° |
| 2026-05-05 14:26 | 28.34824 | -139.72334 | 34588 ft | 489 kts | 225° |
| 2026-05-05 14:26 | 28.32291 | -139.74917 | 34804 ft | 488 kts | 225° |
| 2026-05-05 14:26 | 28.29762 | -139.77495 | 34978 ft | 488 kts | 225° |
| 2026-05-05 14:27 | 28.27240 | -139.80064 | 35169 ft | 487 kts | 225° |
| 2026-05-05 14:27 | 28.25575 | -139.81759 | 35292 ft | 486 kts | 225° |
| 2026-05-05 14:27 | 28.22202 | -139.85189 | 35546 ft | 485 kts | 225° |
| 2026-05-05 14:27 | 28.19687 | -139.87745 | 35722 ft | 484 kts | 225° |
| 2026-05-05 14:28 | 28.17177 | -139.90295 | 35895 ft | 484 kts | 225° |
| 2026-05-05 14:28 | 28.15522 | -139.91975 | 36001 ft | 483 kts | 225° |
| 2026-05-05 14:28 | 28.13020 | -139.94513 | 36174 ft | 482 kts | 225° |
| 2026-05-05 14:28 | 28.10521 | -139.97047 | 36340 ft | 482 kts | 225° |
| 2026-05-05 14:29 | 28.08023 | -139.99578 | 36507 ft | 481 kts | 225° |
| 2026-05-05 14:29 | 28.05531 | -140.02102 | 36648 ft | 480 kts | 225° |
| 2026-05-05 14:29 | 28.03042 | -140.04621 | 36819 ft | 480 kts | 225° |
| 2026-05-05 14:29 | 28.00552 | -140.07138 | 36965 ft | 479 kts | 225° |
| 2026-05-05 14:30 | 27.98065 | -140.09652 | 37117 ft | 478 kts | 225° |
| 2026-05-05 14:30 | 27.95579 | -140.12163 | 37266 ft | 478 kts | 225° |
| 2026-05-05 14:30 | 27.93101 | -140.14664 | 37409 ft | 477 kts | 225° |
| 2026-05-05 14:30 | 27.90657 | -140.17129 | 37545 ft | 477 kts | 225° |
| 2026-05-05 14:31 | 27.88179 | -140.19627 | 37681 ft | 476 kts | 225° |
| 2026-05-05 14:31 | 27.85705 | -140.22119 | 37817 ft | 475 kts | 225° |
| 2026-05-05 14:31 | 27.80753 | -140.27104 | 37810 ft | 477 kts | 225° |
| 2026-05-05 14:32 | 27.75812 | -140.32070 | 37814 ft | 474 kts | 225° |
| 2026-05-05 14:32 | 27.70884 | -140.37018 | 37809 ft | 474 kts | 225° |
| 2026-05-05 14:33 | 27.65957 | -140.41957 | 37812 ft | 473 kts | 225° |
| 2026-05-05 14:33 | 27.61028 | -140.46894 | 37806 ft | 473 kts | 225° |
| 2026-05-05 14:34 | 27.56107 | -140.51815 | 37813 ft | 471 kts | 225° |
| 2026-05-05 14:34 | 27.51235 | -140.56682 | 37807 ft | 472 kts | 225° |
| 2026-05-05 14:35 | 27.46317 | -140.61588 | 37805 ft | 471 kts | 225° |
| 2026-05-05 14:35 | 27.41411 | -140.66477 | 37802 ft | 471 kts | 225° |
| 2026-05-05 14:36 | 27.36500 | -140.71364 | 37801 ft | 471 kts | 225° |
| 2026-05-05 14:36 | 27.31593 | -140.76242 | 37805 ft | 471 kts | 225° |
| 2026-05-05 14:37 | 27.26671 | -140.81128 | 37804 ft | 472 kts | 225° |
| 2026-05-05 14:37 | 27.21786 | -140.85971 | 37804 ft | 471 kts | 225° |
| 2026-05-05 14:38 | 27.16868 | -140.90842 | 37803 ft | 471 kts | 225° |
| 2026-05-05 14:38 | 27.11949 | -140.95708 | 37797 ft | 471 kts | 225° |
| 2026-05-05 14:39 | 27.07031 | -141.00565 | 37794 ft | 471 kts | 225° |
| 2026-05-05 14:39 | 27.02112 | -141.05419 | 37796 ft | 471 kts | 225° |
| 2026-05-05 14:40 | 26.97186 | -141.10274 | 37794 ft | 471 kts | 225° |
| 2026-05-05 14:40 | 26.92258 | -141.15124 | 37797 ft | 471 kts | 225° |
| 2026-05-05 14:41 | 26.87337 | -141.19963 | 37798 ft | 471 kts | 225° |
| 2026-05-05 14:41 | 26.82441 | -141.24770 | 37791 ft | 470 kts | 225° |
| 2026-05-05 14:42 | 26.77526 | -141.29591 | 37792 ft | 468 kts | 225° |
| 2026-05-05 14:42 | 26.72625 | -141.34391 | 37792 ft | 468 kts | 225° |
| 2026-05-05 14:43 | 26.67718 | -141.39192 | 37788 ft | 469 kts | 225° |
| 2026-05-05 14:43 | 26.62846 | -141.43953 | 37789 ft | 468 kts | 225° |
| 2026-05-05 14:44 | 26.57942 | -141.48741 | 37786 ft | 469 kts | 225° |
| 2026-05-05 14:44 | 26.53024 | -141.53535 | 37785 ft | 469 kts | 225° |
| 2026-05-05 14:45 | 26.48103 | -141.58328 | 37789 ft | 469 kts | 225° |
| 2026-05-05 14:45 | 26.43179 | -141.63117 | 37785 ft | 468 kts | 225° |
| 2026-05-05 14:46 | 26.38264 | -141.67892 | 37789 ft | 468 kts | 225° |
| 2026-05-05 14:46 | 26.33379 | -141.72633 | 37785 ft | 468 kts | 225° |
| 2026-05-05 14:47 | 26.28459 | -141.77401 | 37781 ft | 469 kts | 225° |
| 2026-05-05 14:47 | 26.23537 | -141.82166 | 37784 ft | 468 kts | 225° |
| 2026-05-05 14:48 | 26.18618 | -141.86923 | 37778 ft | 468 kts | 225° |
| 2026-05-05 14:48 | 26.13704 | -141.91669 | 37781 ft | 468 kts | 225° |
| 2026-05-05 14:49 | 26.08778 | -141.96421 | 37777 ft | 468 kts | 225° |
| 2026-05-05 14:49 | 26.03849 | -142.01170 | 37780 ft | 468 kts | 225° |
| 2026-05-05 14:50 | 25.98950 | -142.05887 | 37780 ft | 468 kts | 225° |
| 2026-05-05 14:50 | 25.94028 | -142.10618 | 37766 ft | 467 kts | 225° |
| 2026-05-05 14:51 | 25.89113 | -142.15338 | 37785 ft | 467 kts | 225° |
| 2026-05-05 14:51 | 25.84195 | -142.20055 | 37764 ft | 466 kts | 225° |
| 2026-05-05 14:52 | 25.79290 | -142.24755 | 37779 ft | 465 kts | 225° |
| 2026-05-05 14:52 | 25.74391 | -142.29444 | 37765 ft | 466 kts | 225° |
| 2026-05-05 14:53 | 25.69475 | -142.34144 | 37775 ft | 466 kts | 225° |
| 2026-05-05 14:53 | 25.64555 | -142.38841 | 37771 ft | 466 kts | 225° |
| 2026-05-05 14:54 | 25.59670 | -142.43501 | 37778 ft | 466 kts | 225° |
| 2026-05-05 14:54 | 25.54749 | -142.48189 | 37769 ft | 466 kts | 225° |
| 2026-05-05 14:55 | 25.49828 | -142.52872 | 37773 ft | 466 kts | 225° |
| 2026-05-05 14:55 | 25.44910 | -142.57547 | 37771 ft | 465 kts | 225° |
| 2026-05-05 14:56 | 25.40024 | -142.62187 | 37773 ft | 466 kts | 225° |
| 2026-05-05 14:56 | 25.35098 | -142.66858 | 37775 ft | 466 kts | 225° |
| 2026-05-05 14:57 | 25.30178 | -142.71520 | 37771 ft | 466 kts | 225° |
| 2026-05-05 14:57 | 25.25266 | -142.76168 | 37768 ft | 465 kts | 225° |
| 2026-05-05 14:58 | 25.20355 | -142.80811 | 37767 ft | 464 kts | 225° |
| 2026-05-05 14:58 | 25.15451 | -142.85442 | 37770 ft | 463 kts | 225° |
| 2026-05-05 14:59 | 25.10559 | -142.90056 | 37764 ft | 462 kts | 225° |
| 2026-05-05 14:59 | 25.05670 | -142.94663 | 37765 ft | 462 kts | 225° |
| 2026-05-05 15:00 | 25.01602 | -142.98492 | 37762 ft | 462 kts | 225° |
| 2026-05-05 15:00 | 24.96120 | -143.04098 | 37771 ft | 460 kts | 228° |
| 2026-05-05 15:01 | 24.91491 | -143.08965 | 37775 ft | 460 kts | 229° |
| 2026-05-05 15:01 | 24.86897 | -143.13804 | 37771 ft | 460 kts | 229° |
| 2026-05-05 15:02 | 24.82267 | -143.18669 | 37762 ft | 460 kts | 229° |
| 2026-05-05 15:02 | 24.77641 | -143.23528 | 37764 ft | 459 kts | 229° |
| 2026-05-05 15:03 | 24.73014 | -143.28382 | 37766 ft | 459 kts | 229° |
| 2026-05-05 15:03 | 24.68394 | -143.33224 | 37756 ft | 459 kts | 228° |
| 2026-05-05 15:04 | 24.63760 | -143.38074 | 37772 ft | 460 kts | 228° |
| 2026-05-05 15:04 | 24.59122 | -143.42924 | 37767 ft | 460 kts | 228° |
| 2026-05-05 15:05 | 24.52176 | -143.50176 | 37763 ft | 457 kts | 229° |
| 2026-05-05 15:06 | 24.47593 | -143.54956 | 37759 ft | 457 kts | 229° |
| 2026-05-05 15:06 | 24.42974 | -143.59767 | 37758 ft | 458 kts | 229° |
| 2026-05-05 15:07 | 24.38354 | -143.64575 | 37754 ft | 457 kts | 229° |
| 2026-05-05 15:07 | 24.33739 | -143.69373 | 37753 ft | 456 kts | 229° |
| 2026-05-05 15:08 | 24.29127 | -143.74163 | 37747 ft | 457 kts | 229° |
| 2026-05-05 15:08 | 24.24505 | -143.78956 | 37750 ft | 457 kts | 229° |
| 2026-05-05 15:09 | 24.19882 | -143.83747 | 37747 ft | 457 kts | 229° |
| 2026-05-05 15:09 | 24.15264 | -143.88528 | 37751 ft | 456 kts | 229° |
| 2026-05-05 15:10 | 24.10676 | -143.93272 | 37752 ft | 456 kts | 229° |
| 2026-05-05 15:10 | 24.06060 | -143.98040 | 37749 ft | 456 kts | 229° |
| 2026-05-05 15:11 | 24.01444 | -144.02803 | 37747 ft | 456 kts | 229° |
| 2026-05-05 15:11 | 23.96836 | -144.07554 | 37749 ft | 455 kts | 229° |
| 2026-05-05 15:12 | 23.92214 | -144.12314 | 37745 ft | 456 kts | 228° |
| 2026-05-05 15:12 | 23.87589 | -144.17071 | 37741 ft | 456 kts | 228° |
| 2026-05-05 15:13 | 23.82967 | -144.21822 | 37739 ft | 456 kts | 229° |
| 2026-05-05 15:13 | 23.78339 | -144.26572 | 37740 ft | 456 kts | 228° |
| 2026-05-05 15:14 | 23.73750 | -144.31279 | 37743 ft | 456 kts | 229° |
| 2026-05-05 15:14 | 23.69127 | -144.36015 | 37735 ft | 455 kts | 228° |
| 2026-05-05 15:15 | 23.64508 | -144.40744 | 37737 ft | 455 kts | 228° |
| 2026-05-05 15:15 | 23.59891 | -144.45463 | 37731 ft | 455 kts | 228° |
| 2026-05-05 15:16 | 23.56057 | -144.49380 | 37732 ft | 455 kts | 228° |
| 2026-05-05 15:16 | 23.50684 | -144.54862 | 37731 ft | 455 kts | 228° |
| 2026-05-05 15:17 | 23.46813 | -144.58810 | 37731 ft | 455 kts | 228° |
| 2026-05-05 15:17 | 23.41433 | -144.64288 | 37731 ft | 455 kts | 228° |
| 2026-05-05 15:18 | 23.37589 | -144.68199 | 37728 ft | 455 kts | 228° |
| 2026-05-05 15:18 | 23.32955 | -144.72909 | 37726 ft | 455 kts | 228° |
| 2026-05-05 15:19 | 23.28332 | -144.77604 | 37725 ft | 454 kts | 228° |
| 2026-05-05 15:19 | 23.23704 | -144.82299 | 37728 ft | 455 kts | 228° |
| 2026-05-05 15:20 | 23.19074 | -144.86991 | 37725 ft | 455 kts | 228° |
| 2026-05-05 15:20 | 23.14465 | -144.91657 | 37725 ft | 456 kts | 228° |
| 2026-05-05 15:21 | 23.09827 | -144.96348 | 37725 ft | 455 kts | 228° |
| 2026-05-05 15:21 | 23.05183 | -145.01041 | 37724 ft | 456 kts | 228° |
| 2026-05-05 15:22 | 23.00536 | -145.05731 | 37724 ft | 456 kts | 228° |
| 2026-05-05 15:22 | 22.95886 | -145.10421 | 37719 ft | 456 kts | 228° |
| 2026-05-05 15:23 | 22.91231 | -145.15111 | 37721 ft | 456 kts | 228° |
| 2026-05-05 15:23 | 22.86597 | -145.19774 | 37724 ft | 457 kts | 228° |
| 2026-05-05 15:24 | 22.81938 | -145.24458 | 37721 ft | 456 kts | 228° |
| 2026-05-05 15:24 | 22.77294 | -145.29123 | 37716 ft | 455 kts | 228° |
| 2026-05-05 15:25 | 22.72647 | -145.33788 | 37717 ft | 455 kts | 228° |
| 2026-05-05 15:25 | 22.67997 | -145.38448 | 37721 ft | 455 kts | 227° |
| 2026-05-05 15:26 | 22.63340 | -145.43114 | 37715 ft | 457 kts | 227° |
| 2026-05-05 15:26 | 22.58699 | -145.47757 | 37717 ft | 457 kts | 227° |
| 2026-05-05 15:27 | 22.53998 | -145.52456 | 37712 ft | 456 kts | 227° |
| 2026-05-05 15:27 | 22.49361 | -145.57087 | 37712 ft | 456 kts | 227° |
| 2026-05-05 15:28 | 22.44698 | -145.61738 | 37711 ft | 455 kts | 227° |
| 2026-05-05 15:28 | 22.40039 | -145.66383 | 37712 ft | 455 kts | 227° |
| 2026-05-05 15:29 | 22.35376 | -145.71027 | 37717 ft | 456 kts | 227° |
| 2026-05-05 15:29 | 22.30699 | -145.75680 | 37718 ft | 457 kts | 227° |
| 2026-05-05 15:30 | 22.26020 | -145.80329 | 37719 ft | 457 kts | 227° |
| 2026-05-05 15:30 | 22.21370 | -145.84947 | 37716 ft | 456 kts | 227° |
| 2026-05-05 15:31 | 22.16699 | -145.89581 | 37712 ft | 456 kts | 227° |
| 2026-05-05 15:31 | 22.12030 | -145.94208 | 37703 ft | 455 kts | 227° |
| 2026-05-05 15:32 | 22.07369 | -145.98824 | 37697 ft | 455 kts | 227° |
| 2026-05-05 15:32 | 22.02706 | -146.03436 | 37700 ft | 455 kts | 227° |
| 2026-05-05 15:33 | 21.98042 | -146.08045 | 37700 ft | 454 kts | 227° |
| 2026-05-05 15:33 | 21.93390 | -146.12639 | 37699 ft | 453 kts | 227° |
| 2026-05-05 15:34 | 21.88741 | -146.17225 | 37700 ft | 453 kts | 227° |
| 2026-05-05 15:34 | 21.84090 | -146.21809 | 37702 ft | 453 kts | 227° |
| 2026-05-05 15:35 | 21.79435 | -146.26393 | 37700 ft | 453 kts | 228° |
| 2026-05-05 15:35 | 21.74809 | -146.30943 | 37700 ft | 453 kts | 228° |
| 2026-05-05 15:36 | 21.70163 | -146.35510 | 37696 ft | 452 kts | 228° |
| 2026-05-05 15:36 | 21.65511 | -146.40077 | 37697 ft | 452 kts | 228° |
| 2026-05-05 15:37 | 21.60869 | -146.44632 | 37697 ft | 452 kts | 228° |
| 2026-05-05 15:37 | 21.56212 | -146.49197 | 37697 ft | 452 kts | 228° |
| 2026-05-05 15:38 | 21.51559 | -146.53753 | 37694 ft | 452 kts | 228° |
| 2026-05-05 15:38 | 21.46938 | -146.58274 | 37695 ft | 452 kts | 228° |
| 2026-05-05 15:39 | 21.42297 | -146.62811 | 37685 ft | 451 kts | 228° |
| 2026-05-05 15:39 | 21.37650 | -146.67349 | 37688 ft | 450 kts | 228° |
| 2026-05-05 15:40 | 21.33027 | -146.71859 | 37691 ft | 448 kts | 228° |
| 2026-05-05 15:40 | 21.28422 | -146.76350 | 37685 ft | 448 kts | 228° |
| 2026-05-05 15:41 | 21.23802 | -146.80850 | 37688 ft | 448 kts | 228° |
| 2026-05-05 15:41 | 21.19225 | -146.85304 | 37685 ft | 447 kts | 228° |
| 2026-05-05 15:42 | 21.14615 | -146.89787 | 37684 ft | 447 kts | 228° |
| 2026-05-05 15:42 | 21.10013 | -146.94257 | 37686 ft | 447 kts | 228° |
| 2026-05-05 15:43 | 21.05408 | -146.98727 | 37685 ft | 446 kts | 228° |
| 2026-05-05 15:43 | 21.00806 | -147.03189 | 37683 ft | 446 kts | 228° |
| 2026-05-05 15:44 | 20.96204 | -147.07648 | 37681 ft | 446 kts | 228° |
| 2026-05-05 15:44 | 20.91610 | -147.12096 | 37680 ft | 445 kts | 228° |
| 2026-05-05 15:45 | 20.87023 | -147.16533 | 37679 ft | 444 kts | 228° |
| 2026-05-05 15:45 | 20.82467 | -147.20935 | 37681 ft | 444 kts | 229° |
| 2026-05-05 15:46 | 20.77890 | -147.25355 | 37677 ft | 443 kts | 229° |
| 2026-05-05 15:46 | 20.73305 | -147.29779 | 37677 ft | 444 kts | 228° |
| 2026-05-05 15:47 | 20.68719 | -147.34199 | 37675 ft | 443 kts | 228° |
| 2026-05-05 15:47 | 20.64137 | -147.38612 | 37691 ft | 443 kts | 228° |
| 2026-05-05 15:48 | 20.59586 | -147.42992 | 37688 ft | 443 kts | 228° |
| 2026-05-05 15:48 | 20.55011 | -147.47391 | 37683 ft | 443 kts | 228° |
| 2026-05-05 15:49 | 20.50432 | -147.51790 | 37683 ft | 443 kts | 228° |
| 2026-05-05 15:49 | 20.45841 | -147.56197 | 37673 ft | 444 kts | 228° |
| 2026-05-05 15:50 | 20.41239 | -147.60610 | 37674 ft | 444 kts | 228° |
| 2026-05-05 15:50 | 20.36644 | -147.65014 | 37668 ft | 444 kts | 228° |
| 2026-05-05 15:51 | 20.32043 | -147.69420 | 37671 ft | 444 kts | 228° |
| 2026-05-05 15:51 | 20.27470 | -147.73794 | 37667 ft | 444 kts | 228° |
| 2026-05-05 15:52 | 20.22868 | -147.78193 | 37670 ft | 444 kts | 228° |
| 2026-05-05 15:52 | 20.18270 | -147.82585 | 37664 ft | 444 kts | 228° |
| 2026-05-05 15:53 | 20.13667 | -147.86978 | 37660 ft | 444 kts | 228° |
| 2026-05-05 15:53 | 20.09101 | -147.91331 | 37661 ft | 443 kts | 228° |
| 2026-05-05 15:54 | 20.04508 | -147.95708 | 37663 ft | 443 kts | 228° |
| 2026-05-05 15:54 | 19.99809 | -147.99994 | 37690 ft | 449 kts | 221° |
| 2026-05-05 15:55 | 19.94405 | -148.03460 | 37680 ft | 455 kts | 218° |
| 2026-05-05 15:55 | 19.88946 | -148.06858 | 37676 ft | 455 kts | 217° |
| 2026-05-05 15:56 | 19.83477 | -148.10236 | 37672 ft | 455 kts | 217° |
| 2026-05-05 15:56 | 19.78015 | -148.13619 | 37671 ft | 455 kts | 217° |
| 2026-05-05 15:57 | 19.72545 | -148.16999 | 37670 ft | 454 kts | 217° |
| 2026-05-05 15:57 | 19.67121 | -148.20351 | 37668 ft | 454 kts | 217° |
| 2026-05-05 15:58 | 19.61659 | -148.23721 | 37661 ft | 454 kts | 217° |
| 2026-05-05 15:58 | 19.56197 | -148.27090 | 37655 ft | 454 kts | 217° |
| 2026-05-05 15:59 | 19.50726 | -148.30462 | 37655 ft | 455 kts | 217° |
| 2026-05-05 15:59 | 19.45248 | -148.33834 | 37650 ft | 455 kts | 217° |
| 2026-05-05 16:00 | 19.39800 | -148.37187 | 37654 ft | 456 kts | 217° |
| 2026-05-05 16:00 | 19.34307 | -148.40564 | 37653 ft | 456 kts | 217° |
| 2026-05-05 16:01 | 19.28807 | -148.43943 | 37652 ft | 456 kts | 217° |
| 2026-05-05 16:01 | 19.23309 | -148.47317 | 37653 ft | 457 kts | 217° |
| 2026-05-05 16:02 | 19.17804 | -148.50695 | 37650 ft | 458 kts | 217° |
| 2026-05-05 16:02 | 19.12325 | -148.54052 | 37657 ft | 458 kts | 217° |
| 2026-05-05 16:03 | 19.06805 | -148.57433 | 37655 ft | 458 kts | 217° |
| 2026-05-05 16:03 | 19.01289 | -148.60808 | 37662 ft | 458 kts | 217° |
| 2026-05-05 16:04 | 18.95775 | -148.64179 | 37655 ft | 458 kts | 217° |
| 2026-05-05 16:04 | 18.90262 | -148.67548 | 37644 ft | 456 kts | 217° |
| 2026-05-05 16:05 | 18.84767 | -148.70902 | 37645 ft | 456 kts | 217° |
| 2026-05-05 16:05 | 18.79268 | -148.74257 | 37646 ft | 457 kts | 217° |
| 2026-05-05 16:06 | 18.73770 | -148.77608 | 37644 ft | 456 kts | 217° |
| 2026-05-05 16:06 | 18.69200 | -148.80392 | 37640 ft | 456 kts | 217° |
| 2026-05-05 16:07 | 18.63703 | -148.83738 | 37643 ft | 456 kts | 216° |
| 2026-05-05 16:07 | 18.58210 | -148.87079 | 37638 ft | 455 kts | 216° |
| 2026-05-05 16:08 | 18.52721 | -148.90416 | 37640 ft | 455 kts | 216° |
| 2026-05-05 16:08 | 18.47230 | -148.93751 | 37638 ft | 456 kts | 216° |
| 2026-05-05 16:09 | 18.41733 | -148.97087 | 37637 ft | 456 kts | 216° |
| 2026-05-05 16:09 | 18.36267 | -149.00402 | 37632 ft | 455 kts | 216° |
| 2026-05-05 16:10 | 18.30786 | -149.03723 | 37637 ft | 454 kts | 216° |
| 2026-05-05 16:10 | 18.25299 | -149.07047 | 37629 ft | 454 kts | 216° |
| 2026-05-05 16:11 | 18.19846 | -149.10346 | 37627 ft | 455 kts | 216° |
| 2026-05-05 16:12 | 18.08876 | -149.16977 | 37626 ft | 454 kts | 216° |
| 2026-05-05 16:13 | 17.95168 | -149.25249 | 37631 ft | 453 kts | 216° |
| 2026-05-05 16:13 | 17.89692 | -149.28550 | 37628 ft | 454 kts | 216° |
| 2026-05-05 16:14 | 17.78773 | -149.35123 | 37642 ft | 454 kts | 216° |
| 2026-05-05 16:15 | 17.67807 | -149.41716 | 37628 ft | 455 kts | 216° |
| 2026-05-05 16:16 | 17.56802 | -149.48323 | 37622 ft | 456 kts | 216° |
| 2026-05-05 16:17 | 17.48528 | -149.53284 | 37624 ft | 457 kts | 216° |
| 2026-05-05 16:18 | 17.40289 | -149.58219 | 37620 ft | 457 kts | 216° |
| 2026-05-05 16:19 | 17.32003 | -149.63177 | 37619 ft | 457 kts | 216° |
| 2026-05-05 16:19 | 17.23718 | -149.68129 | 37617 ft | 457 kts | 216° |
| 2026-05-05 16:20 | 17.12713 | -149.74698 | 37611 ft | 456 kts | 216° |
| 2026-05-05 16:22 | 16.98908 | -149.82927 | 37608 ft | 457 kts | 216° |
| 2026-05-05 16:23 | 16.87855 | -149.89505 | 37611 ft | 456 kts | 215° |
| 2026-05-05 16:23 | 16.79594 | -149.94416 | 37609 ft | 455 kts | 215° |
| 2026-05-05 16:24 | 16.74088 | -149.97686 | 37611 ft | 455 kts | 215° |
| 2026-05-05 16:25 | 16.65857 | -150.02571 | 37607 ft | 456 kts | 215° |
| 2026-05-05 16:25 | 16.57571 | -150.07483 | 37604 ft | 456 kts | 215° |
| 2026-05-05 16:26 | 16.46513 | -150.14031 | 37604 ft | 457 kts | 215° |
| 2026-05-05 16:27 | 16.40983 | -150.17303 | 37604 ft | 457 kts | 215° |
| 2026-05-05 16:27 | 16.35436 | -150.20582 | 37603 ft | 458 kts | 215° |
| 2026-05-05 16:28 | 16.29919 | -150.23842 | 37605 ft | 460 kts | 215° |
| 2026-05-05 16:28 | 16.24347 | -150.27131 | 37603 ft | 460 kts | 215° |
| 2026-05-05 16:29 | 16.18767 | -150.30423 | 37603 ft | 461 kts | 215° |
| 2026-05-05 16:29 | 16.13183 | -150.33715 | 37599 ft | 461 kts | 215° |
| 2026-05-05 16:30 | 16.07604 | -150.37003 | 37599 ft | 460 kts | 215° |
| 2026-05-05 16:30 | 16.02034 | -150.40282 | 37595 ft | 460 kts | 215° |
| 2026-05-05 16:31 | 15.96498 | -150.43541 | 37601 ft | 460 kts | 215° |
| 2026-05-05 16:31 | 15.90919 | -150.46821 | 37600 ft | 461 kts | 215° |
| 2026-05-05 16:32 | 15.85344 | -150.50098 | 37598 ft | 461 kts | 215° |
| 2026-05-05 16:32 | 15.79760 | -150.53377 | 37598 ft | 461 kts | 215° |
| 2026-05-05 16:33 | 15.74172 | -150.56658 | 37599 ft | 461 kts | 215° |
| 2026-05-05 16:33 | 15.68587 | -150.59933 | 37600 ft | 461 kts | 215° |
| 2026-05-05 16:34 | 15.62991 | -150.63214 | 37594 ft | 461 kts | 215° |
| 2026-05-05 16:34 | 15.57449 | -150.66461 | 37588 ft | 461 kts | 215° |
| 2026-05-05 16:35 | 15.51864 | -150.69731 | 37586 ft | 461 kts | 215° |
| 2026-05-05 16:35 | 15.46272 | -150.73002 | 37592 ft | 460 kts | 214° |
| 2026-05-05 16:36 | 15.40694 | -150.76264 | 37588 ft | 460 kts | 214° |
| 2026-05-05 16:36 | 15.35118 | -150.79523 | 37587 ft | 460 kts | 214° |
| 2026-05-05 16:37 | 15.29536 | -150.82783 | 37589 ft | 461 kts | 214° |
| 2026-05-05 16:37 | 15.23950 | -150.86043 | 37595 ft | 460 kts | 214° |
| 2026-05-05 16:38 | 15.18365 | -150.89300 | 37592 ft | 459 kts | 214° |
| 2026-05-05 16:38 | 15.12828 | -150.92529 | 37593 ft | 460 kts | 214° |
| 2026-05-05 16:39 | 15.07239 | -150.95784 | 37591 ft | 460 kts | 214° |
| 2026-05-05 16:39 | 15.01655 | -150.99036 | 37591 ft | 461 kts | 214° |
| 2026-05-05 16:40 | 14.96510 | -151.02863 | 37596 ft | 456 kts | 222° |
| 2026-05-05 16:40 | 14.91539 | -151.06950 | 37598 ft | 456 kts | 222° |
| 2026-05-05 16:41 | 14.86575 | -151.11023 | 37596 ft | 455 kts | 222° |
| 2026-05-05 16:41 | 14.81613 | -151.15094 | 37594 ft | 456 kts | 222° |
| 2026-05-05 16:42 | 14.76636 | -151.19173 | 37592 ft | 456 kts | 222° |
| 2026-05-05 16:42 | 14.71697 | -151.23220 | 37590 ft | 457 kts | 221° |
| 2026-05-05 16:43 | 14.66708 | -151.27305 | 37588 ft | 457 kts | 221° |
| 2026-05-05 16:43 | 14.61716 | -151.31390 | 37585 ft | 458 kts | 221° |
| 2026-05-05 16:44 | 14.56717 | -151.35478 | 37584 ft | 458 kts | 221° |
| 2026-05-05 16:44 | 14.51711 | -151.39570 | 37582 ft | 459 kts | 221° |
| 2026-05-05 16:45 | 14.46744 | -151.43627 | 37578 ft | 459 kts | 221° |
| 2026-05-05 16:45 | 14.41732 | -151.47719 | 37577 ft | 459 kts | 221° |
| 2026-05-05 16:46 | 14.36708 | -151.51818 | 37578 ft | 461 kts | 221° |
| 2026-05-05 16:46 | 14.31668 | -151.55927 | 37577 ft | 462 kts | 221° |
| 2026-05-05 16:47 | 14.26652 | -151.60015 | 37579 ft | 463 kts | 221° |
| 2026-05-05 16:47 | 14.21595 | -151.64134 | 37581 ft | 463 kts | 221° |
| 2026-05-05 16:48 | 14.16532 | -151.68255 | 37577 ft | 463 kts | 221° |
| 2026-05-05 16:48 | 14.11469 | -151.72373 | 37577 ft | 463 kts | 221° |
| 2026-05-05 16:49 | 14.06405 | -151.76490 | 37572 ft | 463 kts | 221° |
| 2026-05-05 16:49 | 14.01374 | -151.80578 | 37572 ft | 464 kts | 221° |
| 2026-05-05 16:50 | 13.96301 | -151.84698 | 37572 ft | 464 kts | 220° |
| 2026-05-05 16:50 | 13.91230 | -151.88813 | 37571 ft | 464 kts | 220° |
| 2026-05-05 16:51 | 13.86153 | -151.92931 | 37568 ft | 465 kts | 220° |
| 2026-05-05 16:51 | 13.81078 | -151.97046 | 37568 ft | 465 kts | 220° |
| 2026-05-05 16:52 | 13.75985 | -152.01173 | 37563 ft | 466 kts | 220° |
| 2026-05-05 16:52 | 13.70890 | -152.05298 | 37562 ft | 466 kts | 220° |
| 2026-05-05 16:53 | 13.65799 | -152.09418 | 37561 ft | 465 kts | 220° |
| 2026-05-05 16:53 | 13.60738 | -152.13512 | 37557 ft | 465 kts | 220° |
| 2026-05-05 16:54 | 13.55632 | -152.17639 | 37558 ft | 466 kts | 220° |
| 2026-05-05 16:54 | 13.50537 | -152.21756 | 37553 ft | 466 kts | 220° |
| 2026-05-05 16:55 | 13.45475 | -152.25843 | 37566 ft | 466 kts | 220° |
| 2026-05-05 16:55 | 13.40378 | -152.29956 | 37558 ft | 466 kts | 220° |
| 2026-05-05 16:56 | 13.35272 | -152.34075 | 37552 ft | 465 kts | 220° |
| 2026-05-05 16:56 | 13.30187 | -152.38174 | 37553 ft | 465 kts | 220° |
| 2026-05-05 16:57 | 13.25954 | -152.41584 | 37560 ft | 465 kts | 220° |
| 2026-05-05 16:57 | 13.20847 | -152.45698 | 37558 ft | 466 kts | 220° |
| 2026-05-05 16:58 | 13.15735 | -152.49812 | 37560 ft | 466 kts | 220° |
| 2026-05-05 16:58 | 13.09801 | -152.54585 | 37557 ft | 466 kts | 220° |
| 2026-05-05 16:59 | 13.05551 | -152.58003 | 37553 ft | 467 kts | 220° |
| 2026-05-05 16:59 | 12.99578 | -152.62802 | 37550 ft | 467 kts | 219° |
| 2026-05-05 17:00 | 12.95326 | -152.66217 | 37547 ft | 467 kts | 219° |
| 2026-05-05 17:00 | 12.90212 | -152.70322 | 37546 ft | 467 kts | 219° |
| 2026-05-05 17:01 | 12.85088 | -152.74433 | 37548 ft | 467 kts | 219° |
| 2026-05-05 17:01 | 12.79962 | -152.78543 | 37543 ft | 467 kts | 219° |
| 2026-05-05 17:02 | 12.74878 | -152.82618 | 37549 ft | 467 kts | 219° |
| 2026-05-05 17:02 | 12.69757 | -152.86719 | 37552 ft | 466 kts | 219° |
| 2026-05-05 17:03 | 12.64643 | -152.90813 | 37555 ft | 467 kts | 219° |
| 2026-05-05 17:03 | 12.59526 | -152.94908 | 37554 ft | 467 kts | 219° |
| 2026-05-05 17:04 | 12.54409 | -152.99000 | 37556 ft | 467 kts | 219° |
| 2026-05-05 17:04 | 12.49277 | -153.03102 | 37555 ft | 468 kts | 219° |
| 2026-05-05 17:05 | 12.44181 | -153.07174 | 37552 ft | 468 kts | 219° |
| 2026-05-05 17:05 | 12.39036 | -153.11283 | 37550 ft | 469 kts | 219° |
| 2026-05-05 17:06 | 12.33884 | -153.15395 | 37548 ft | 470 kts | 219° |
| 2026-05-05 17:06 | 12.28724 | -153.19510 | 37551 ft | 470 kts | 219° |
| 2026-05-05 17:07 | 12.23568 | -153.23622 | 37548 ft | 471 kts | 219° |
| 2026-05-05 17:07 | 12.18427 | -153.27718 | 37549 ft | 472 kts | 219° |
| 2026-05-05 17:08 | 12.13242 | -153.31848 | 37545 ft | 472 kts | 219° |
| 2026-05-05 17:08 | 12.08057 | -153.35976 | 37535 ft | 472 kts | 219° |
| 2026-05-05 17:09 | 12.02868 | -153.40105 | 37536 ft | 474 kts | 219° |
| 2026-05-05 17:09 | 11.97661 | -153.44246 | 37537 ft | 475 kts | 219° |
| 2026-05-05 17:10 | 11.92440 | -153.48396 | 37536 ft | 475 kts | 219° |
| 2026-05-05 17:10 | 11.87242 | -153.52525 | 37532 ft | 477 kts | 219° |
| 2026-05-05 17:11 | 11.82005 | -153.56684 | 37538 ft | 477 kts | 219° |
| 2026-05-05 17:11 | 11.76763 | -153.60844 | 37535 ft | 477 kts | 219° |
| 2026-05-05 17:12 | 11.71522 | -153.65002 | 37532 ft | 477 kts | 219° |
| 2026-05-05 17:12 | 11.66279 | -153.69160 | 37527 ft | 477 kts | 219° |
| 2026-05-05 17:13 | 11.61037 | -153.73314 | 37527 ft | 477 kts | 219° |
| 2026-05-05 17:13 | 11.55787 | -153.77472 | 37526 ft | 478 kts | 219° |
| 2026-05-05 17:14 | 11.50529 | -153.81636 | 37529 ft | 478 kts | 219° |
| 2026-05-05 17:14 | 11.45298 | -153.85775 | 37529 ft | 479 kts | 219° |
| 2026-05-05 17:15 | 11.40032 | -153.89940 | 37528 ft | 479 kts | 219° |
| 2026-05-05 17:15 | 11.34768 | -153.94101 | 37530 ft | 479 kts | 219° |
| 2026-05-05 17:16 | 11.29502 | -153.98263 | 37526 ft | 479 kts | 219° |
| 2026-05-05 17:16 | 11.24234 | -154.02424 | 37523 ft | 479 kts | 219° |
| 2026-05-05 17:17 | 11.18969 | -154.06581 | 37520 ft | 479 kts | 219° |
| 2026-05-05 17:17 | 11.13698 | -154.10740 | 37523 ft | 479 kts | 219° |
| 2026-05-05 17:18 | 11.08417 | -154.14905 | 37522 ft | 479 kts | 219° |
| 2026-05-05 17:18 | 11.03144 | -154.19062 | 37523 ft | 479 kts | 219° |
| 2026-05-05 17:19 | 10.97905 | -154.23190 | 37521 ft | 479 kts | 218° |
| 2026-05-05 17:19 | 10.92622 | -154.27351 | 37519 ft | 479 kts | 219° |
| 2026-05-05 17:20 | 10.87351 | -154.31501 | 37525 ft | 479 kts | 219° |
| 2026-05-05 17:20 | 10.82075 | -154.35652 | 37523 ft | 480 kts | 219° |
| 2026-05-05 17:21 | 10.76827 | -154.39780 | 37520 ft | 480 kts | 219° |
| 2026-05-05 17:22 | 10.68898 | -154.46013 | 37518 ft | 480 kts | 219° |
| 2026-05-05 17:22 | 10.63613 | -154.50165 | 37521 ft | 480 kts | 219° |
| 2026-05-05 17:23 | 10.58326 | -154.54317 | 37515 ft | 480 kts | 219° |
| 2026-05-05 17:23 | 10.53027 | -154.58476 | 37524 ft | 480 kts | 219° |
| 2026-05-05 17:24 | 10.47771 | -154.62600 | 37515 ft | 481 kts | 219° |
| 2026-05-05 17:24 | 10.42478 | -154.66751 | 37518 ft | 481 kts | 219° |
| 2026-05-05 17:25 | 10.37168 | -154.70914 | 37516 ft | 481 kts | 219° |
| 2026-05-05 17:25 | 10.31869 | -154.75066 | 37523 ft | 481 kts | 219° |
| 2026-05-05 17:26 | 10.26590 | -154.79200 | 37525 ft | 482 kts | 219° |
| 2026-05-05 17:26 | 10.21247 | -154.83383 | 37516 ft | 482 kts | 219° |
| 2026-05-05 17:27 | 10.15939 | -154.87537 | 37514 ft | 482 kts | 219° |
| 2026-05-05 17:27 | 10.10660 | -154.91666 | 37522 ft | 482 kts | 219° |
| 2026-05-05 17:28 | 10.05338 | -154.95827 | 37512 ft | 482 kts | 219° |
| 2026-05-05 17:28 | 10.00027 | -154.99980 | 37521 ft | 482 kts | 220° |
| 2026-05-05 17:29 | 9.94809 | -155.04236 | 37522 ft | 482 kts | 219° |
| 2026-05-05 17:29 | 9.89548 | -155.08486 | 37522 ft | 482 kts | 220° |
| 2026-05-05 17:30 | 9.84328 | -155.12749 | 37520 ft | 482 kts | 220° |
| 2026-05-05 17:30 | 9.79082 | -155.16996 | 37523 ft | 482 kts | 220° |
| 2026-05-05 17:31 | 9.73858 | -155.21247 | 37518 ft | 482 kts | 220° |
| 2026-05-05 17:31 | 9.68615 | -155.25498 | 37517 ft | 483 kts | 220° |
| 2026-05-05 17:32 | 9.63399 | -155.29733 | 37515 ft | 483 kts | 220° |
| 2026-05-05 17:32 | 9.58158 | -155.33982 | 37517 ft | 483 kts | 220° |
| 2026-05-05 17:33 | 9.52917 | -155.38232 | 37512 ft | 482 kts | 220° |
| 2026-05-05 17:33 | 9.47685 | -155.42471 | 37513 ft | 483 kts | 220° |
| 2026-05-05 17:34 | 9.42430 | -155.46728 | 37507 ft | 483 kts | 220° |
| 2026-05-05 17:34 | 9.37178 | -155.50981 | 37511 ft | 483 kts | 220° |
| 2026-05-05 17:35 | 9.31924 | -155.55233 | 37512 ft | 484 kts | 220° |
| 2026-05-05 17:35 | 9.26697 | -155.59462 | 37508 ft | 484 kts | 220° |
| 2026-05-05 17:36 | 9.21433 | -155.63719 | 37508 ft | 484 kts | 220° |
| 2026-05-05 17:36 | 9.16172 | -155.67972 | 37501 ft | 483 kts | 220° |
| 2026-05-05 17:37 | 9.10917 | -155.72218 | 37505 ft | 483 kts | 220° |
| 2026-05-05 17:37 | 9.05657 | -155.76468 | 37503 ft | 483 kts | 220° |
| 2026-05-05 17:38 | 9.00402 | -155.80711 | 37502 ft | 484 kts | 220° |
| 2026-05-05 17:38 | 8.95134 | -155.84964 | 37502 ft | 484 kts | 220° |
| 2026-05-05 17:39 | 8.89916 | -155.89174 | 37504 ft | 483 kts | 220° |
| 2026-05-05 17:39 | 8.84662 | -155.93411 | 37498 ft | 483 kts | 220° |
| 2026-05-05 17:40 | 8.79416 | -155.97641 | 37497 ft | 482 kts | 220° |
| 2026-05-05 17:40 | 8.74162 | -156.01876 | 37500 ft | 482 kts | 220° |
| 2026-05-05 17:41 | 8.68912 | -156.06105 | 37498 ft | 482 kts | 220° |
| 2026-05-05 17:41 | 8.63670 | -156.10327 | 37491 ft | 482 kts | 220° |
| 2026-05-05 17:42 | 8.58430 | -156.14545 | 37493 ft | 481 kts | 220° |
| 2026-05-05 17:42 | 8.53228 | -156.18732 | 37495 ft | 481 kts | 220° |
| 2026-05-05 17:43 | 8.47983 | -156.22952 | 37497 ft | 481 kts | 220° |
| 2026-05-05 17:43 | 8.42744 | -156.27164 | 37496 ft | 481 kts | 220° |
| 2026-05-05 17:44 | 8.37509 | -156.31373 | 37493 ft | 481 kts | 220° |
| 2026-05-05 17:44 | 8.32267 | -156.35586 | 37492 ft | 482 kts | 220° |
| 2026-05-05 17:45 | 8.27018 | -156.39802 | 37490 ft | 482 kts | 220° |
| 2026-05-05 17:45 | 8.21768 | -156.44018 | 37493 ft | 482 kts | 220° |
| 2026-05-05 17:46 | 8.16506 | -156.48243 | 37496 ft | 484 kts | 220° |
| 2026-05-05 17:46 | 8.11272 | -156.52443 | 37495 ft | 484 kts | 220° |
| 2026-05-05 17:47 | 8.06007 | -156.56667 | 37492 ft | 483 kts | 220° |
| 2026-05-05 17:47 | 8.00745 | -156.60887 | 37493 ft | 483 kts | 220° |
| 2026-05-05 17:48 | 7.96363 | -156.64400 | 37493 ft | 484 kts | 220° |
| 2026-05-05 17:48 | 7.91082 | -156.68632 | 37491 ft | 484 kts | 220° |
| 2026-05-05 17:49 | 7.84948 | -156.73547 | 37493 ft | 484 kts | 220° |
| 2026-05-05 17:49 | 7.80559 | -156.77062 | 37495 ft | 484 kts | 220° |
| 2026-05-05 17:50 | 7.75286 | -156.81284 | 37494 ft | 484 kts | 220° |
| 2026-05-05 17:50 | 7.70007 | -156.85509 | 37491 ft | 485 kts | 220° |
| 2026-05-05 17:51 | 7.64719 | -156.89741 | 37494 ft | 485 kts | 220° |
| 2026-05-05 17:51 | 7.59431 | -156.93970 | 37494 ft | 484 kts | 220° |
| 2026-05-05 17:52 | 7.54156 | -156.98187 | 37491 ft | 484 kts | 220° |
| 2026-05-05 17:52 | 7.48912 | -157.02380 | 37492 ft | 484 kts | 220° |
| 2026-05-05 17:53 | 7.43629 | -157.06602 | 37495 ft | 485 kts | 220° |
| 2026-05-05 17:53 | 7.38319 | -157.10843 | 37495 ft | 486 kts | 220° |
| 2026-05-05 17:54 | 7.33033 | -157.15065 | 37494 ft | 485 kts | 220° |
| 2026-05-05 17:54 | 7.27740 | -157.19290 | 37493 ft | 484 kts | 220° |
| 2026-05-05 17:55 | 7.22460 | -157.23504 | 37490 ft | 484 kts | 220° |
| 2026-05-05 17:55 | 7.17167 | -157.27727 | 37492 ft | 485 kts | 220° |
| 2026-05-05 17:56 | 7.11880 | -157.31944 | 37494 ft | 485 kts | 220° |
| 2026-05-05 17:56 | 7.06588 | -157.36164 | 37491 ft | 486 kts | 220° |
| 2026-05-05 17:57 | 7.01315 | -157.40367 | 37494 ft | 487 kts | 220° |
| 2026-05-05 17:57 | 6.96012 | -157.44593 | 37505 ft | 487 kts | 220° |
| 2026-05-05 17:58 | 6.90700 | -157.48825 | 37490 ft | 486 kts | 220° |
| 2026-05-05 17:58 | 6.85392 | -157.53052 | 37498 ft | 487 kts | 220° |
| 2026-05-05 17:59 | 6.80076 | -157.57285 | 37500 ft | 487 kts | 220° |
| 2026-05-05 17:59 | 6.74753 | -157.61522 | 37496 ft | 487 kts | 220° |
| 2026-05-05 18:00 | 6.69441 | -157.65749 | 37498 ft | 488 kts | 220° |
| 2026-05-05 18:00 | 6.64146 | -157.69961 | 37498 ft | 488 kts | 220° |
| 2026-05-05 18:01 | 6.58821 | -157.74195 | 37501 ft | 488 kts | 220° |
| 2026-05-05 18:01 | 6.53491 | -157.78433 | 37500 ft | 488 kts | 220° |
| 2026-05-05 18:02 | 6.48162 | -157.82669 | 37496 ft | 488 kts | 220° |
| 2026-05-05 18:02 | 6.42821 | -157.86913 | 37501 ft | 489 kts | 220° |
| 2026-05-05 18:03 | 6.37486 | -157.91151 | 37498 ft | 489 kts | 221° |
| 2026-05-05 18:03 | 6.32175 | -157.95369 | 37496 ft | 490 kts | 220° |
| 2026-05-05 18:04 | 6.26828 | -157.99614 | 37497 ft | 489 kts | 221° |
| 2026-05-05 18:04 | 6.21484 | -158.03857 | 37494 ft | 490 kts | 220° |
| 2026-05-05 18:05 | 6.16129 | -158.08106 | 37501 ft | 491 kts | 220° |
| 2026-05-05 18:05 | 6.10769 | -158.12357 | 37497 ft | 490 kts | 220° |
| 2026-05-05 18:06 | 6.05426 | -158.16595 | 37492 ft | 490 kts | 221° |
| 2026-05-05 18:06 | 6.00062 | -158.20849 | 37491 ft | 490 kts | 221° |
| 2026-05-05 18:07 | 5.94716 | -158.25086 | 37491 ft | 490 kts | 221° |
| 2026-05-05 18:07 | 5.89354 | -158.29336 | 37482 ft | 491 kts | 221° |
| 2026-05-05 18:08 | 5.83986 | -158.33589 | 37485 ft | 491 kts | 221° |
| 2026-05-05 18:08 | 5.78659 | -158.37808 | 37483 ft | 490 kts | 221° |
| 2026-05-05 18:09 | 5.73287 | -158.42063 | 37488 ft | 490 kts | 221° |
| 2026-05-05 18:09 | 5.67924 | -158.46308 | 37487 ft | 490 kts | 221° |
| 2026-05-05 18:10 | 5.62572 | -158.50545 | 37485 ft | 491 kts | 221° |
| 2026-05-05 18:10 | 5.57207 | -158.54790 | 37488 ft | 491 kts | 221° |
| 2026-05-05 18:11 | 5.51833 | -158.59042 | 37489 ft | 492 kts | 221° |
| 2026-05-05 18:11 | 5.46448 | -158.63301 | 37493 ft | 492 kts | 221° |
| 2026-05-05 18:12 | 5.41111 | -158.67522 | 37491 ft | 492 kts | 221° |
| 2026-05-05 18:12 | 5.35741 | -158.71767 | 37485 ft | 492 kts | 221° |
| 2026-05-05 18:13 | 5.30362 | -158.76018 | 37487 ft | 492 kts | 221° |
| 2026-05-05 18:13 | 5.24982 | -158.80270 | 37488 ft | 491 kts | 221° |
| 2026-05-05 18:14 | 5.19623 | -158.84504 | 37485 ft | 491 kts | 221° |
| 2026-05-05 18:14 | 5.14238 | -158.88757 | 37489 ft | 491 kts | 221° |
| 2026-05-05 18:15 | 5.08871 | -158.92995 | 37490 ft | 491 kts | 221° |
| 2026-05-05 18:15 | 5.03504 | -158.97233 | 37485 ft | 491 kts | 221° |
| 2026-05-05 18:16 | 4.98168 | -159.01451 | 37483 ft | 491 kts | 221° |
| 2026-05-05 18:16 | 4.92857 | -159.05762 | 37485 ft | 491 kts | 221° |
| 2026-05-05 18:17 | 4.87525 | -159.10038 | 37485 ft | 490 kts | 221° |
| 2026-05-05 18:17 | 4.82212 | -159.14322 | 37488 ft | 490 kts | 221° |
| 2026-05-05 18:18 | 4.76893 | -159.18599 | 37485 ft | 490 kts | 221° |
| 2026-05-05 18:18 | 4.71565 | -159.22887 | 37487 ft | 490 kts | 221° |
| 2026-05-05 18:19 | 4.66257 | -159.27157 | 37486 ft | 489 kts | 221° |
| 2026-05-05 18:19 | 4.60950 | -159.31425 | 37484 ft | 489 kts | 221° |
| 2026-05-05 18:20 | 4.55644 | -159.35691 | 37480 ft | 488 kts | 221° |
| 2026-05-05 18:20 | 4.50386 | -159.39918 | 37481 ft | 488 kts | 221° |
| 2026-05-05 18:21 | 4.45086 | -159.44178 | 37478 ft | 489 kts | 221° |
| 2026-05-05 18:21 | 4.39787 | -159.48437 | 37473 ft | 488 kts | 221° |
| 2026-05-05 18:22 | 4.34480 | -159.52701 | 37479 ft | 489 kts | 221° |
| 2026-05-05 18:22 | 4.29162 | -159.56973 | 37482 ft | 488 kts | 221° |
| 2026-05-05 18:23 | 4.23872 | -159.61222 | 37481 ft | 487 kts | 221° |
| 2026-05-05 18:23 | 4.18588 | -159.65465 | 37478 ft | 487 kts | 221° |
| 2026-05-05 18:24 | 4.13297 | -159.69713 | 37477 ft | 487 kts | 221° |
| 2026-05-05 18:24 | 4.08043 | -159.73931 | 37476 ft | 486 kts | 221° |
| 2026-05-05 18:25 | 4.02756 | -159.78175 | 37472 ft | 486 kts | 221° |
| 2026-05-05 18:25 | 3.97469 | -159.82417 | 37480 ft | 487 kts | 221° |
| 2026-05-05 18:26 | 3.92179 | -159.86661 | 37479 ft | 487 kts | 221° |
| 2026-05-05 18:26 | 3.86904 | -159.90893 | 37475 ft | 485 kts | 221° |
| 2026-05-05 18:27 | 3.81624 | -159.95127 | 37476 ft | 486 kts | 221° |
| 2026-05-05 18:27 | 3.76340 | -159.99365 | 37476 ft | 486 kts | 221° |
| 2026-05-05 18:28 | 3.68416 | -160.05718 | 37480 ft | 487 kts | 221° |
| 2026-05-05 18:28 | 3.63136 | -160.09951 | 37476 ft | 486 kts | 221° |
| 2026-05-05 18:29 | 3.57851 | -160.14187 | 37476 ft | 486 kts | 221° |
| 2026-05-05 18:29 | 3.52607 | -160.18389 | 37476 ft | 486 kts | 221° |
| 2026-05-05 18:30 | 3.47337 | -160.22612 | 37478 ft | 485 kts | 221° |
| 2026-05-05 18:30 | 3.42066 | -160.26835 | 37480 ft | 485 kts | 221° |
| 2026-05-05 18:31 | 3.36799 | -160.31054 | 37477 ft | 485 kts | 221° |
| 2026-05-05 18:31 | 3.31527 | -160.35276 | 37479 ft | 484 kts | 221° |
| 2026-05-05 18:32 | 3.26252 | -160.39500 | 37479 ft | 483 kts | 221° |
| 2026-05-05 18:32 | 3.21030 | -160.43682 | 37475 ft | 484 kts | 221° |
| 2026-05-05 18:33 | 3.15773 | -160.47890 | 37478 ft | 484 kts | 220° |
| 2026-05-05 18:33 | 3.10515 | -160.52099 | 37479 ft | 484 kts | 220° |
| 2026-05-05 18:34 | 3.05256 | -160.56308 | 37470 ft | 484 kts | 220° |
| 2026-05-05 18:34 | 2.99990 | -160.60522 | 37471 ft | 484 kts | 220° |
| 2026-05-05 18:35 | 2.94731 | -160.64730 | 37474 ft | 484 kts | 220° |
| 2026-05-05 18:35 | 2.90350 | -160.68235 | 37478 ft | 484 kts | 220° |
| 2026-05-05 18:36 | 2.84198 | -160.73156 | 37478 ft | 484 kts | 220° |
| 2026-05-05 18:36 | 2.78976 | -160.77333 | 37478 ft | 484 kts | 220° |
| 2026-05-05 18:37 | 2.74570 | -160.80857 | 37477 ft | 483 kts | 220° |
| 2026-05-05 18:37 | 2.68462 | -160.85742 | 37479 ft | 484 kts | 220° |
| 2026-05-05 18:38 | 2.64081 | -160.89245 | 37479 ft | 484 kts | 220° |
| 2026-05-05 18:38 | 2.58823 | -160.93448 | 37479 ft | 483 kts | 220° |
| 2026-05-05 18:39 | 2.53569 | -160.97649 | 37480 ft | 483 kts | 220° |
| 2026-05-05 18:39 | 2.48318 | -161.01846 | 37480 ft | 483 kts | 220° |
| 2026-05-05 18:40 | 2.43074 | -161.06037 | 37479 ft | 483 kts | 220° |
| 2026-05-05 18:40 | 2.37826 | -161.10232 | 37481 ft | 483 kts | 220° |
| 2026-05-05 18:41 | 2.32578 | -161.14425 | 37480 ft | 482 kts | 220° |
| 2026-05-05 18:41 | 2.27339 | -161.18611 | 37478 ft | 482 kts | 220° |
| 2026-05-05 18:42 | 2.22125 | -161.22777 | 37480 ft | 482 kts | 220° |
| 2026-05-05 18:42 | 2.16881 | -161.26966 | 37479 ft | 482 kts | 220° |
| 2026-05-05 18:43 | 2.11643 | -161.31150 | 37473 ft | 481 kts | 220° |
| 2026-05-05 18:43 | 2.06402 | -161.35336 | 37477 ft | 482 kts | 220° |
| 2026-05-05 18:44 | 2.01193 | -161.39497 | 37480 ft | 482 kts | 220° |
| 2026-05-05 18:44 | 1.95956 | -161.43679 | 37478 ft | 481 kts | 220° |
| 2026-05-05 18:45 | 1.90719 | -161.47860 | 37475 ft | 481 kts | 220° |
| 2026-05-05 18:45 | 1.85485 | -161.52040 | 37477 ft | 482 kts | 220° |
| 2026-05-05 18:46 | 1.80249 | -161.56220 | 37478 ft | 481 kts | 220° |
| 2026-05-05 18:46 | 1.75049 | -161.60371 | 37479 ft | 481 kts | 220° |
| 2026-05-05 18:47 | 1.69804 | -161.64558 | 37477 ft | 482 kts | 220° |
| 2026-05-05 18:47 | 1.64562 | -161.68742 | 37480 ft | 482 kts | 220° |
| 2026-05-05 18:48 | 1.59322 | -161.72924 | 37477 ft | 481 kts | 220° |
| 2026-05-05 18:48 | 1.54081 | -161.77107 | 37481 ft | 482 kts | 220° |
| 2026-05-05 18:49 | 1.48836 | -161.81293 | 37480 ft | 482 kts | 220° |
| 2026-05-05 18:49 | 1.43599 | -161.85473 | 37477 ft | 481 kts | 220° |
| 2026-05-05 18:50 | 1.38354 | -161.89658 | 37480 ft | 482 kts | 220° |
| 2026-05-05 18:50 | 1.33144 | -161.93815 | 37478 ft | 482 kts | 220° |
| 2026-05-05 18:51 | 1.27905 | -161.97995 | 37480 ft | 481 kts | 220° |
| 2026-05-05 18:51 | 1.22670 | -162.02172 | 37478 ft | 481 kts | 220° |
| 2026-05-05 18:52 | 1.17431 | -162.06351 | 37475 ft | 482 kts | 220° |
| 2026-05-05 18:52 | 1.12178 | -162.10542 | 37477 ft | 484 kts | 220° |
| 2026-05-05 18:53 | 1.06916 | -162.14739 | 37478 ft | 484 kts | 220° |
| 2026-05-05 18:53 | 1.01681 | -162.18915 | 37479 ft | 484 kts | 221° |
| 2026-05-05 18:54 | 0.96426 | -162.23107 | 37477 ft | 483 kts | 221° |
| 2026-05-05 18:54 | 0.91177 | -162.27294 | 37473 ft | 482 kts | 221° |
| 2026-05-05 18:55 | 0.85929 | -162.31479 | 37474 ft | 483 kts | 221° |
| 2026-05-05 18:55 | 0.80679 | -162.35666 | 37474 ft | 482 kts | 221° |
| 2026-05-05 18:56 | 0.75431 | -162.39852 | 37475 ft | 482 kts | 221° |
| 2026-05-05 18:56 | 0.70204 | -162.44020 | 37479 ft | 483 kts | 221° |
| 2026-05-05 18:57 | 0.64946 | -162.48213 | 37482 ft | 484 kts | 221° |
| 2026-05-05 18:57 | 0.59681 | -162.52412 | 37482 ft | 484 kts | 221° |
| 2026-05-05 18:58 | 0.54423 | -162.56604 | 37482 ft | 483 kts | 221° |
| 2026-05-05 18:58 | 0.49169 | -162.60794 | 37478 ft | 482 kts | 221° |
| 2026-05-05 18:59 | 0.43920 | -162.64979 | 37478 ft | 483 kts | 221° |
| 2026-05-05 18:59 | 0.38662 | -162.69172 | 37486 ft | 484 kts | 221° |
| 2026-05-05 19:00 | 0.33395 | -162.73371 | 37486 ft | 484 kts | 221° |
| 2026-05-05 19:00 | 0.28173 | -162.77536 | 37485 ft | 483 kts | 221° |
| 2026-05-05 19:01 | 0.22914 | -162.81729 | 37482 ft | 482 kts | 221° |
| 2026-05-05 19:01 | 0.17665 | -162.85914 | 37483 ft | 482 kts | 221° |
| 2026-05-05 19:02 | 0.12409 | -162.90104 | 37477 ft | 483 kts | 221° |
| 2026-05-05 19:02 | 0.07151 | -162.94297 | 37481 ft | 483 kts | 221° |
| 2026-05-05 19:03 | 0.01886 | -162.98495 | 37492 ft | 484 kts | 221° |
| 2026-05-05 19:03 | -0.03361 | -163.02657 | 37491 ft | 484 kts | 220° |
| 2026-05-05 19:04 | -0.08655 | -163.06801 | 37491 ft | 483 kts | 221° |
| 2026-05-05 19:04 | -0.13921 | -163.10957 | 37487 ft | 482 kts | 221° |
| 2026-05-05 19:05 | -0.19198 | -163.15103 | 37486 ft | 482 kts | 221° |
| 2026-05-05 19:05 | -0.24473 | -163.19258 | 37484 ft | 484 kts | 221° |
| 2026-05-05 19:06 | -0.29771 | -163.23425 | 37489 ft | 484 kts | 221° |
| 2026-05-05 19:06 | -0.35060 | -163.27587 | 37492 ft | 484 kts | 221° |
| 2026-05-05 19:07 | -0.40346 | -163.31747 | 37492 ft | 483 kts | 221° |
| 2026-05-05 19:07 | -0.45626 | -163.35902 | 37493 ft | 482 kts | 221° |
| 2026-05-05 19:08 | -0.50864 | -163.40024 | 37486 ft | 482 kts | 221° |
| 2026-05-05 19:08 | -0.56128 | -163.44167 | 37484 ft | 482 kts | 221° |
| 2026-05-05 19:09 | -0.61399 | -163.48316 | 37486 ft | 482 kts | 220° |
| 2026-05-05 19:09 | -0.66670 | -163.52464 | 37484 ft | 482 kts | 220° |
| 2026-05-05 19:10 | -0.71936 | -163.56608 | 37487 ft | 482 kts | 220° |
| 2026-05-05 19:10 | -0.77212 | -163.60761 | 37490 ft | 482 kts | 220° |
| 2026-05-05 19:11 | -0.82442 | -163.64877 | 37490 ft | 482 kts | 220° |
| 2026-05-05 19:11 | -0.87712 | -163.69025 | 37488 ft | 482 kts | 220° |
| 2026-05-05 19:12 | -0.92980 | -163.73172 | 37494 ft | 482 kts | 220° |
| 2026-05-05 19:12 | -0.98256 | -163.77325 | 37493 ft | 482 kts | 220° |
| 2026-05-05 19:13 | -1.03531 | -163.81478 | 37491 ft | 483 kts | 220° |
| 2026-05-05 19:13 | -1.08809 | -163.85633 | 37488 ft | 483 kts | 220° |
| 2026-05-05 19:14 | -1.14078 | -163.89781 | 37490 ft | 481 kts | 220° |
| 2026-05-05 19:14 | -1.19341 | -163.93925 | 37489 ft | 482 kts | 220° |
| 2026-05-05 19:15 | -1.24617 | -163.98079 | 37489 ft | 483 kts | 220° |
| 2026-05-05 19:15 | -1.30274 | -164.01727 | 37494 ft | 487 kts | 211° |
| 2026-05-05 19:16 | -1.36252 | -164.04912 | 37492 ft | 487 kts | 210° |
| 2026-05-05 19:16 | -1.42206 | -164.08098 | 37498 ft | 487 kts | 211° |
| 2026-05-05 19:17 | -1.48181 | -164.11292 | 37491 ft | 486 kts | 210° |
| 2026-05-05 19:17 | -1.54147 | -164.14481 | 37494 ft | 486 kts | 210° |
| 2026-05-05 19:18 | -1.60113 | -164.17672 | 37495 ft | 486 kts | 210° |
| 2026-05-05 19:18 | -1.66093 | -164.20869 | 37494 ft | 487 kts | 210° |
| 2026-05-05 19:19 | -1.72071 | -164.24066 | 37493 ft | 487 kts | 210° |
| 2026-05-05 19:19 | -1.78053 | -164.27265 | 37491 ft | 487 kts | 210° |
| 2026-05-05 19:20 | -1.83988 | -164.30439 | 37491 ft | 487 kts | 210° |
| 2026-05-05 19:20 | -1.89959 | -164.33633 | 37495 ft | 487 kts | 210° |
| 2026-05-05 19:21 | -1.95938 | -164.36831 | 37494 ft | 487 kts | 210° |
| 2026-05-05 19:21 | -2.01910 | -164.40026 | 37494 ft | 486 kts | 210° |
| 2026-05-05 19:22 | -2.07889 | -164.43225 | 37494 ft | 487 kts | 210° |
| 2026-05-05 19:22 | -2.13861 | -164.46420 | 37495 ft | 487 kts | 210° |
| 2026-05-05 19:23 | -2.19839 | -164.49619 | 37496 ft | 487 kts | 210° |
| 2026-05-05 19:23 | -2.24801 | -164.52275 | 37499 ft | 487 kts | 210° |
| 2026-05-05 19:24 | -2.30756 | -164.55461 | 37492 ft | 487 kts | 210° |
| 2026-05-05 19:24 | -2.36731 | -164.58659 | 37493 ft | 487 kts | 210° |
| 2026-05-05 19:25 | -2.42710 | -164.61860 | 37491 ft | 487 kts | 210° |
| 2026-05-05 19:25 | -2.48683 | -164.65057 | 37489 ft | 487 kts | 210° |
| 2026-05-05 19:26 | -2.54659 | -164.68257 | 37490 ft | 487 kts | 210° |
| 2026-05-05 19:26 | -2.60621 | -164.71450 | 37497 ft | 487 kts | 210° |
| 2026-05-05 19:27 | -2.66609 | -164.74656 | 37494 ft | 487 kts | 210° |
| 2026-05-05 19:27 | -2.72591 | -164.77860 | 37495 ft | 487 kts | 210° |
| 2026-05-05 19:28 | -2.78523 | -164.81038 | 37495 ft | 486 kts | 210° |
| 2026-05-05 19:28 | -2.84498 | -164.84238 | 37496 ft | 487 kts | 210° |
| 2026-05-05 19:29 | -2.90469 | -164.87437 | 37494 ft | 487 kts | 210° |
| 2026-05-05 19:29 | -2.96447 | -164.90640 | 37494 ft | 487 kts | 210° |
| 2026-05-05 19:30 | -3.02408 | -164.93835 | 37498 ft | 487 kts | 210° |
| 2026-05-05 19:30 | -3.08403 | -164.97048 | 37496 ft | 487 kts | 210° |
| 2026-05-05 19:31 | -3.14333 | -165.00226 | 37495 ft | 487 kts | 210° |
| 2026-05-05 19:31 | -3.20306 | -165.03429 | 37493 ft | 486 kts | 210° |
| 2026-05-05 19:32 | -3.26263 | -165.06623 | 37489 ft | 486 kts | 210° |
| 2026-05-05 19:32 | -3.32229 | -165.09822 | 37494 ft | 485 kts | 210° |
| 2026-05-05 19:33 | -3.38179 | -165.13013 | 37497 ft | 485 kts | 210° |
| 2026-05-05 19:33 | -3.44138 | -165.16209 | 37500 ft | 485 kts | 210° |
| 2026-05-05 19:34 | -3.50075 | -165.19394 | 37494 ft | 484 kts | 210° |
| 2026-05-05 19:35 | -3.58985 | -165.24175 | 37491 ft | 484 kts | 210° |
| 2026-05-05 19:35 | -3.64917 | -165.27359 | 37495 ft | 484 kts | 210° |
| 2026-05-05 19:36 | -3.70849 | -165.30543 | 37494 ft | 484 kts | 210° |
| 2026-05-05 19:36 | -3.76749 | -165.33710 | 37496 ft | 485 kts | 210° |
| 2026-05-05 19:37 | -3.82700 | -165.36905 | 37501 ft | 485 kts | 210° |
| 2026-05-05 19:37 | -3.88653 | -165.40102 | 37503 ft | 485 kts | 210° |
| 2026-05-05 19:38 | -3.94600 | -165.43296 | 37501 ft | 485 kts | 210° |
| 2026-05-05 19:38 | -4.00546 | -165.46490 | 37501 ft | 484 kts | 210° |
| 2026-05-05 19:39 | -4.06489 | -165.49683 | 37502 ft | 484 kts | 210° |
| 2026-05-05 19:39 | -4.12386 | -165.52851 | 37501 ft | 484 kts | 210° |
| 2026-05-05 19:40 | -4.18315 | -165.56038 | 37499 ft | 484 kts | 210° |
| 2026-05-05 19:40 | -4.24256 | -165.59231 | 37501 ft | 484 kts | 210° |
| 2026-05-05 19:41 | -4.30190 | -165.62422 | 37501 ft | 484 kts | 210° |
| 2026-05-05 19:41 | -4.36126 | -165.65614 | 37504 ft | 484 kts | 210° |
| 2026-05-05 19:42 | -4.42061 | -165.68806 | 37502 ft | 483 kts | 210° |
| 2026-05-05 19:42 | -4.47996 | -165.71999 | 37503 ft | 484 kts | 210° |
| 2026-05-05 19:43 | -4.53931 | -165.75191 | 37503 ft | 484 kts | 210° |
| 2026-05-05 19:43 | -4.59867 | -165.78386 | 37505 ft | 485 kts | 210° |
| 2026-05-05 19:44 | -4.65824 | -165.81592 | 37505 ft | 486 kts | 210° |
| 2026-05-05 19:44 | -4.71741 | -165.84777 | 37499 ft | 485 kts | 210° |
| 2026-05-05 19:45 | -4.77683 | -165.87977 | 37499 ft | 484 kts | 210° |
| 2026-05-05 19:45 | -4.83624 | -165.91176 | 37499 ft | 484 kts | 210° |
| 2026-05-05 19:46 | -4.89560 | -165.94374 | 37502 ft | 485 kts | 210° |
| 2026-05-05 19:46 | -4.95507 | -165.97578 | 37504 ft | 485 kts | 210° |
| 2026-05-05 19:47 | -5.01425 | -166.00853 | 37515 ft | 483 kts | 213° |
| 2026-05-05 19:47 | -5.07201 | -166.04265 | 37502 ft | 485 kts | 212° |
| 2026-05-05 19:48 | -5.13000 | -166.07707 | 37503 ft | 484 kts | 213° |
| 2026-05-05 19:48 | -5.18807 | -166.11153 | 37501 ft | 485 kts | 213° |
| 2026-05-05 19:49 | -5.24613 | -166.14595 | 37501 ft | 485 kts | 213° |
| 2026-05-05 19:49 | -5.30417 | -166.18042 | 37499 ft | 484 kts | 213° |
| 2026-05-05 19:50 | -5.36219 | -166.21484 | 37503 ft | 484 kts | 213° |
| 2026-05-05 19:50 | -5.42016 | -166.24927 | 37504 ft | 484 kts | 213° |
| 2026-05-05 19:51 | -5.47823 | -166.28374 | 37505 ft | 484 kts | 213° |
| 2026-05-05 19:51 | -5.53586 | -166.31798 | 37501 ft | 484 kts | 213° |
| 2026-05-05 19:52 | -5.59389 | -166.35245 | 37505 ft | 485 kts | 213° |
| 2026-05-05 19:52 | -5.65218 | -166.38709 | 37504 ft | 485 kts | 213° |
| 2026-05-05 19:53 | -5.70994 | -166.42142 | 37505 ft | 485 kts | 213° |
| 2026-05-05 19:53 | -5.76814 | -166.45602 | 37504 ft | 485 kts | 213° |
| 2026-05-05 19:54 | -5.82623 | -166.49056 | 37503 ft | 486 kts | 213° |
| 2026-05-05 19:54 | -5.88449 | -166.52522 | 37501 ft | 487 kts | 213° |
| 2026-05-05 19:55 | -5.94289 | -166.55996 | 37504 ft | 487 kts | 213° |
| 2026-05-05 19:55 | -6.00118 | -166.59465 | 37507 ft | 487 kts | 213° |
| 2026-05-05 19:56 | -6.05906 | -166.62910 | 37505 ft | 486 kts | 213° |
| 2026-05-05 19:56 | -6.11730 | -166.66378 | 37507 ft | 487 kts | 213° |
| 2026-05-05 19:57 | -6.17569 | -166.69855 | 37505 ft | 487 kts | 213° |
| 2026-05-05 19:57 | -6.23401 | -166.73329 | 37505 ft | 487 kts | 213° |
| 2026-05-05 19:58 | -6.29221 | -166.76798 | 37505 ft | 486 kts | 213° |
| 2026-05-05 19:58 | -6.35056 | -166.80275 | 37504 ft | 487 kts | 213° |
| 2026-05-05 19:59 | -6.40898 | -166.83758 | 37500 ft | 489 kts | 213° |
| 2026-05-05 19:59 | -6.46752 | -166.87249 | 37509 ft | 489 kts | 213° |
| 2026-05-05 20:00 | -6.52609 | -166.90743 | 37504 ft | 489 kts | 213° |
| 2026-05-05 20:00 | -6.58446 | -166.94225 | 37502 ft | 488 kts | 213° |
| 2026-05-05 20:01 | -6.64282 | -166.97708 | 37502 ft | 487 kts | 213° |
| 2026-05-05 20:01 | -6.70071 | -167.01165 | 37504 ft | 488 kts | 213° |
| 2026-05-05 20:02 | -6.75924 | -167.04660 | 37508 ft | 489 kts | 213° |
| 2026-05-05 20:02 | -6.81777 | -167.08156 | 37506 ft | 489 kts | 213° |
| 2026-05-05 20:03 | -6.87621 | -167.11647 | 37505 ft | 488 kts | 213° |
| 2026-05-05 20:03 | -6.93453 | -167.15133 | 37512 ft | 487 kts | 213° |
| 2026-05-05 20:04 | -6.99287 | -167.18621 | 37509 ft | 488 kts | 213° |
| 2026-05-05 20:04 | -7.05124 | -167.22112 | 37511 ft | 489 kts | 213° |
| 2026-05-05 20:05 | -7.10976 | -167.25612 | 37511 ft | 489 kts | 213° |
| 2026-05-05 20:05 | -7.16820 | -167.29109 | 37510 ft | 488 kts | 213° |
| 2026-05-05 20:06 | -7.22662 | -167.32606 | 37513 ft | 488 kts | 213° |
| 2026-05-05 20:06 | -7.28505 | -167.36105 | 37514 ft | 489 kts | 213° |
| 2026-05-05 20:07 | -7.34353 | -167.39607 | 37513 ft | 490 kts | 213° |
| 2026-05-05 20:07 | -7.40202 | -167.43111 | 37515 ft | 488 kts | 213° |
| 2026-05-05 20:08 | -7.45998 | -167.46585 | 37512 ft | 487 kts | 213° |
| 2026-05-05 20:08 | -7.51828 | -167.50080 | 37511 ft | 487 kts | 213° |
| 2026-05-05 20:09 | -7.57657 | -167.53576 | 37513 ft | 488 kts | 213° |
| 2026-05-05 20:09 | -7.63501 | -167.57081 | 37513 ft | 489 kts | 213° |
| 2026-05-05 20:10 | -7.69343 | -167.60587 | 37515 ft | 489 kts | 213° |
| 2026-05-05 20:10 | -7.75191 | -167.64097 | 37516 ft | 488 kts | 213° |
| 2026-05-05 20:11 | -7.80987 | -167.67577 | 37511 ft | 487 kts | 213° |
| 2026-05-05 20:11 | -7.85840 | -167.70492 | 37512 ft | 488 kts | 213° |
| 2026-05-05 20:12 | -7.91675 | -167.73998 | 37513 ft | 489 kts | 213° |
| 2026-05-05 20:12 | -7.98515 | -167.78109 | 37514 ft | 490 kts | 213° |
| 2026-05-05 20:13 | -8.03373 | -167.81030 | 37514 ft | 489 kts | 213° |
| 2026-05-05 20:13 | -8.09217 | -167.84545 | 37512 ft | 489 kts | 213° |
| 2026-05-05 20:14 | -8.15062 | -167.88061 | 37514 ft | 489 kts | 213° |
| 2026-05-05 20:14 | -8.20911 | -167.91581 | 37515 ft | 489 kts | 213° |
| 2026-05-05 20:15 | -8.26751 | -167.95097 | 37514 ft | 488 kts | 213° |
| 2026-05-05 20:15 | -8.32574 | -167.98604 | 37516 ft | 487 kts | 213° |
| 2026-05-05 20:16 | -8.38394 | -168.02110 | 37513 ft | 487 kts | 214° |
| 2026-05-05 20:16 | -8.44183 | -168.05599 | 37519 ft | 487 kts | 214° |
| 2026-05-05 20:17 | -8.49992 | -168.09101 | 37514 ft | 487 kts | 214° |
| 2026-05-05 20:17 | -8.55817 | -168.12614 | 37520 ft | 488 kts | 214° |
| 2026-05-05 20:18 | -8.61652 | -168.16135 | 37526 ft | 488 kts | 214° |
| 2026-05-05 20:18 | -8.67481 | -168.19653 | 37514 ft | 487 kts | 214° |
| 2026-05-05 20:19 | -8.73299 | -168.23165 | 37517 ft | 486 kts | 214° |
| 2026-05-05 20:19 | -8.79105 | -168.26672 | 37520 ft | 486 kts | 214° |
| 2026-05-05 20:20 | -8.84928 | -168.30191 | 37517 ft | 488 kts | 214° |
| 2026-05-05 20:20 | -8.90759 | -168.33715 | 37520 ft | 487 kts | 214° |
| 2026-05-05 20:21 | -8.96572 | -168.37230 | 37522 ft | 486 kts | 214° |
| 2026-05-05 20:21 | -9.02379 | -168.40742 | 37520 ft | 486 kts | 214° |
| 2026-05-05 20:22 | -9.08153 | -168.44236 | 37511 ft | 487 kts | 214° |
| 2026-05-05 20:22 | -9.13967 | -168.47756 | 37515 ft | 488 kts | 214° |
| 2026-05-05 20:23 | -9.19791 | -168.51282 | 37520 ft | 487 kts | 214° |
| 2026-05-05 20:23 | -9.25597 | -168.54800 | 37522 ft | 486 kts | 214° |
| 2026-05-05 20:24 | -9.31389 | -168.58310 | 37519 ft | 485 kts | 214° |
| 2026-05-05 20:24 | -9.37172 | -168.61816 | 37525 ft | 485 kts | 214° |
| 2026-05-05 20:25 | -9.42923 | -168.65305 | 37524 ft | 485 kts | 214° |
| 2026-05-05 20:25 | -9.48716 | -168.68819 | 37521 ft | 485 kts | 214° |
| 2026-05-05 20:26 | -9.54515 | -168.72340 | 37525 ft | 486 kts | 214° |
| 2026-05-05 20:26 | -9.60315 | -168.75861 | 37525 ft | 486 kts | 214° |
| 2026-05-05 20:27 | -9.66107 | -168.79380 | 37524 ft | 485 kts | 214° |
| 2026-05-05 20:27 | -9.71912 | -168.82908 | 37517 ft | 486 kts | 214° |
| 2026-05-05 20:28 | -9.77716 | -168.86437 | 37523 ft | 486 kts | 214° |
| 2026-05-05 20:28 | -9.83527 | -168.89971 | 37519 ft | 487 kts | 214° |
| 2026-05-05 20:29 | -9.89349 | -168.93514 | 37523 ft | 489 kts | 214° |
| 2026-05-05 20:29 | -9.95186 | -168.97067 | 37521 ft | 490 kts | 214° |
| 2026-05-05 20:30 | -10.01008 | -169.00566 | 37538 ft | 491 kts | 211° |
| 2026-05-05 20:30 | -10.06975 | -169.03955 | 37519 ft | 491 kts | 212° |
| 2026-05-05 20:31 | -10.12948 | -169.07346 | 37520 ft | 492 kts | 212° |
| 2026-05-05 20:31 | -10.18934 | -169.10739 | 37525 ft | 491 kts | 212° |
| 2026-05-05 20:32 | -10.24887 | -169.14125 | 37523 ft | 490 kts | 212° |
| 2026-05-05 20:32 | -10.30817 | -169.17490 | 37517 ft | 490 kts | 212° |
| 2026-05-05 20:33 | -10.36772 | -169.20878 | 37524 ft | 491 kts | 212° |
| 2026-05-05 20:33 | -10.42738 | -169.24269 | 37523 ft | 491 kts | 212° |
| 2026-05-05 20:34 | -10.48696 | -169.27659 | 37521 ft | 491 kts | 212° |
| 2026-05-05 20:34 | -10.54661 | -169.31053 | 37525 ft | 492 kts | 212° |
| 2026-05-05 20:35 | -10.60636 | -169.34456 | 37524 ft | 492 kts | 212° |
| 2026-05-05 20:35 | -10.66618 | -169.37864 | 37527 ft | 492 kts | 212° |
| 2026-05-05 20:36 | -10.72568 | -169.41255 | 37530 ft | 493 kts | 212° |
| 2026-05-05 20:36 | -10.78555 | -169.44668 | 37530 ft | 493 kts | 212° |
| 2026-05-05 20:37 | -10.84533 | -169.48078 | 37532 ft | 493 kts | 212° |
| 2026-05-05 20:37 | -10.90534 | -169.51503 | 37535 ft | 493 kts | 212° |
| 2026-05-05 20:38 | -10.96494 | -169.54906 | 37532 ft | 493 kts | 212° |
| 2026-05-05 20:38 | -11.02480 | -169.58326 | 37533 ft | 493 kts | 212° |
| 2026-05-05 20:39 | -11.08476 | -169.61753 | 37534 ft | 493 kts | 212° |
| 2026-05-05 20:39 | -11.14466 | -169.65177 | 37530 ft | 493 kts | 212° |
| 2026-05-05 20:40 | -11.20449 | -169.68600 | 37527 ft | 493 kts | 212° |
| 2026-05-05 20:40 | -11.26438 | -169.72028 | 37532 ft | 494 kts | 213° |
| 2026-05-05 20:41 | -11.32392 | -169.75437 | 37532 ft | 494 kts | 213° |
| 2026-05-05 20:41 | -11.38388 | -169.78872 | 37529 ft | 494 kts | 213° |
| 2026-05-05 20:42 | -11.44374 | -169.82303 | 37529 ft | 492 kts | 213° |
| 2026-05-05 20:42 | -11.50337 | -169.85722 | 37525 ft | 491 kts | 213° |
| 2026-05-05 20:43 | -11.56293 | -169.89140 | 37526 ft | 491 kts | 213° |
| 2026-05-05 20:43 | -11.62208 | -169.92535 | 37527 ft | 490 kts | 213° |
| 2026-05-05 20:44 | -11.68151 | -169.95948 | 37530 ft | 490 kts | 213° |
| 2026-05-05 20:44 | -11.74090 | -169.99360 | 37535 ft | 489 kts | 213° |
| 2026-05-05 20:45 | -11.82985 | -170.04474 | 37528 ft | 489 kts | 213° |
| 2026-05-05 20:45 | -11.88917 | -170.07887 | 37531 ft | 489 kts | 213° |
| 2026-05-05 20:46 | -11.94852 | -170.11303 | 37529 ft | 489 kts | 213° |
| 2026-05-05 20:46 | -12.00785 | -170.14720 | 37532 ft | 490 kts | 213° |
| 2026-05-05 20:47 | -12.06684 | -170.18118 | 37529 ft | 489 kts | 213° |
| 2026-05-05 20:47 | -12.12615 | -170.21538 | 37533 ft | 489 kts | 213° |
| 2026-05-05 20:48 | -12.18548 | -170.24960 | 37524 ft | 490 kts | 213° |
| 2026-05-05 20:48 | -12.24490 | -170.28388 | 37524 ft | 490 kts | 213° |
| 2026-05-05 20:49 | -12.30424 | -170.31815 | 37526 ft | 490 kts | 213° |
| 2026-05-05 20:49 | -12.36367 | -170.35248 | 37530 ft | 491 kts | 213° |
| 2026-05-05 20:50 | -12.41358 | -170.38132 | 37525 ft | 492 kts | 213° |
| 2026-05-05 20:50 | -12.48275 | -170.42132 | 37530 ft | 491 kts | 213° |
| 2026-05-05 20:51 | -12.54227 | -170.45576 | 37526 ft | 492 kts | 213° |
| 2026-05-05 20:51 | -12.60182 | -170.49022 | 37520 ft | 490 kts | 213° |
| 2026-05-05 20:52 | -12.66080 | -170.52439 | 37533 ft | 490 kts | 213° |
| 2026-05-05 20:52 | -12.72020 | -170.55882 | 37522 ft | 490 kts | 213° |
| 2026-05-05 20:53 | -12.77949 | -170.59319 | 37522 ft | 490 kts | 213° |
| 2026-05-05 20:53 | -12.83881 | -170.62761 | 37519 ft | 490 kts | 213° |
| 2026-05-05 20:54 | -12.89826 | -170.66212 | 37522 ft | 491 kts | 213° |
| 2026-05-05 20:54 | -12.95770 | -170.69664 | 37522 ft | 491 kts | 213° |
| 2026-05-05 20:55 | -13.01720 | -170.73121 | 37524 ft | 492 kts | 213° |
| 2026-05-05 20:55 | -13.07679 | -170.76586 | 37524 ft | 491 kts | 213° |
| 2026-05-05 20:56 | -13.13594 | -170.80027 | 37520 ft | 491 kts | 213° |
| 2026-05-05 20:56 | -13.19544 | -170.83491 | 37526 ft | 491 kts | 213° |
| 2026-05-05 20:57 | -13.25506 | -170.86963 | 37521 ft | 492 kts | 213° |
| 2026-05-05 20:57 | -13.31461 | -170.90433 | 37518 ft | 491 kts | 213° |
| 2026-05-05 20:58 | -13.37404 | -170.93898 | 37521 ft | 491 kts | 213° |
| 2026-05-05 20:58 | -13.42355 | -170.96787 | 37517 ft | 492 kts | 213° |
| 2026-05-05 20:59 | -13.49270 | -171.00823 | 37515 ft | 492 kts | 213° |
| 2026-05-05 20:59 | -13.55208 | -171.04291 | 37517 ft | 491 kts | 213° |
| 2026-05-05 21:00 | -13.60195 | -171.07206 | 37521 ft | 492 kts | 213° |
| 2026-05-05 21:00 | -13.66115 | -171.10667 | 37520 ft | 493 kts | 213° |
| 2026-05-05 21:01 | -13.72075 | -171.14154 | 37515 ft | 493 kts | 213° |
| 2026-05-05 21:01 | -13.78041 | -171.17647 | 37521 ft | 493 kts | 213° |
| 2026-05-05 21:02 | -13.84012 | -171.21144 | 37512 ft | 494 kts | 213° |
| 2026-05-05 21:02 | -13.89976 | -171.24640 | 37513 ft | 493 kts | 213° |
| 2026-05-05 21:03 | -13.95946 | -171.28141 | 37516 ft | 493 kts | 213° |
| 2026-05-05 21:03 | -14.01915 | -171.31643 | 37516 ft | 494 kts | 213° |
| 2026-05-05 21:04 | -14.07856 | -171.35131 | 37514 ft | 494 kts | 213° |
| 2026-05-05 21:04 | -14.13837 | -171.38645 | 37512 ft | 493 kts | 213° |
| 2026-05-05 21:05 | -14.19798 | -171.42150 | 37513 ft | 493 kts | 213° |
| 2026-05-05 21:05 | -14.25712 | -171.45628 | 37512 ft | 492 kts | 213° |
| 2026-05-05 21:06 | -14.31673 | -171.49137 | 37507 ft | 493 kts | 213° |
| 2026-05-05 21:06 | -14.37642 | -171.52652 | 37509 ft | 493 kts | 213° |
| 2026-05-05 21:07 | -14.43598 | -171.56163 | 37510 ft | 493 kts | 213° |
| 2026-05-05 21:07 | -14.49568 | -171.59682 | 37510 ft | 493 kts | 213° |
| 2026-05-05 21:08 | -14.55527 | -171.63199 | 37509 ft | 493 kts | 213° |
| 2026-05-05 21:08 | -14.61481 | -171.66714 | 37508 ft | 493 kts | 213° |
| 2026-05-05 21:09 | -14.67423 | -171.70243 | 37499 ft | 493 kts | 214° |
| 2026-05-05 21:09 | -14.73348 | -171.73816 | 37503 ft | 493 kts | 214° |
| 2026-05-05 21:10 | -14.79276 | -171.77361 | 37499 ft | 493 kts | 214° |
| 2026-05-05 21:10 | -14.85161 | -171.80901 | 37503 ft | 492 kts | 214° |
| 2026-05-05 21:11 | -14.91085 | -171.84456 | 37503 ft | 492 kts | 214° |
| 2026-05-05 21:11 | -14.97012 | -171.88021 | 37499 ft | 493 kts | 214° |
| 2026-05-05 21:12 | -15.02947 | -171.91590 | 37509 ft | 493 kts | 214° |
| 2026-05-05 21:12 | -15.08842 | -171.95139 | 37503 ft | 493 kts | 214° |
| 2026-05-05 21:13 | -15.14770 | -171.98709 | 37504 ft | 493 kts | 214° |
| 2026-05-05 21:13 | -15.20710 | -172.02289 | 37504 ft | 494 kts | 214° |
| 2026-05-05 21:14 | -15.26649 | -172.05870 | 37504 ft | 493 kts | 214° |
| 2026-05-05 21:14 | -15.32571 | -172.09445 | 37500 ft | 493 kts | 214° |
| 2026-05-05 21:15 | -15.38502 | -172.13026 | 37497 ft | 493 kts | 214° |
| 2026-05-05 21:15 | -15.44412 | -172.16597 | 37500 ft | 492 kts | 214° |
| 2026-05-05 21:16 | -15.50329 | -172.20176 | 37500 ft | 492 kts | 214° |
| 2026-05-05 21:16 | -15.56243 | -172.23754 | 37501 ft | 492 kts | 214° |
| 2026-05-05 21:17 | -15.62119 | -172.27312 | 37499 ft | 492 kts | 214° |
| 2026-05-05 21:17 | -15.68026 | -172.30891 | 37496 ft | 491 kts | 214° |
| 2026-05-05 21:18 | -15.73931 | -172.34472 | 37496 ft | 491 kts | 214° |
| 2026-05-05 21:18 | -15.79840 | -172.38057 | 37491 ft | 491 kts | 214° |
| 2026-05-05 21:19 | -15.85733 | -172.41635 | 37488 ft | 491 kts | 214° |
| 2026-05-05 21:19 | -15.91632 | -172.45219 | 37488 ft | 491 kts | 214° |
| 2026-05-05 21:20 | -15.97533 | -172.48807 | 37491 ft | 491 kts | 214° |
| 2026-05-05 21:20 | -16.03396 | -172.52375 | 37498 ft | 492 kts | 214° |
| 2026-05-05 21:21 | -16.09310 | -172.55974 | 37502 ft | 491 kts | 214° |
| 2026-05-05 21:21 | -16.15208 | -172.59568 | 37501 ft | 491 kts | 214° |
| 2026-05-05 21:22 | -16.21101 | -172.63161 | 37503 ft | 490 kts | 214° |
| 2026-05-05 21:22 | -16.26986 | -172.66751 | 37499 ft | 490 kts | 214° |
| 2026-05-05 21:23 | -16.32864 | -172.70340 | 37494 ft | 489 kts | 214° |
| 2026-05-05 21:23 | -16.38697 | -172.73904 | 37494 ft | 489 kts | 214° |
| 2026-05-05 21:24 | -16.44571 | -172.77495 | 37495 ft | 489 kts | 214° |
| 2026-05-05 21:24 | -16.50430 | -172.81080 | 37490 ft | 488 kts | 214° |
| 2026-05-05 21:25 | -16.56279 | -172.84661 | 37496 ft | 487 kts | 215° |
| 2026-05-05 21:25 | -16.62125 | -172.88243 | 37493 ft | 487 kts | 215° |
| 2026-05-05 21:26 | -16.67978 | -172.91832 | 37492 ft | 487 kts | 215° |
| 2026-05-05 21:26 | -16.73811 | -172.95411 | 37495 ft | 486 kts | 215° |
| 2026-05-05 21:27 | -16.79642 | -172.98991 | 37493 ft | 485 kts | 215° |
| 2026-05-05 21:27 | -16.85421 | -173.02542 | 37494 ft | 484 kts | 215° |
| 2026-05-05 21:28 | -16.91226 | -173.06111 | 37495 ft | 483 kts | 215° |
| 2026-05-05 21:28 | -16.97025 | -173.09680 | 37489 ft | 483 kts | 215° |
| 2026-05-05 21:29 | -17.02815 | -173.13245 | 37492 ft | 483 kts | 215° |
| 2026-05-05 21:29 | -17.08599 | -173.16810 | 37494 ft | 483 kts | 215° |
| 2026-05-05 21:30 | -17.14387 | -173.20379 | 37480 ft | 483 kts | 216° |
| 2026-05-05 21:30 | -17.20190 | -173.23960 | 37488 ft | 484 kts | 216° |
| 2026-05-05 21:31 | -17.25989 | -173.27542 | 37487 ft | 484 kts | 216° |
| 2026-05-05 21:31 | -17.31757 | -173.31107 | 37472 ft | 484 kts | 216° |
| 2026-05-05 21:32 | -17.37555 | -173.34693 | 37476 ft | 484 kts | 216° |
| 2026-05-05 21:32 | -17.43363 | -173.38288 | 37481 ft | 485 kts | 216° |
| 2026-05-05 21:33 | -17.49174 | -173.41888 | 37480 ft | 485 kts | 216° |
| 2026-05-05 21:33 | -17.54994 | -173.45495 | 37479 ft | 485 kts | 216° |
| 2026-05-05 21:34 | -17.60816 | -173.49107 | 37486 ft | 486 kts | 216° |
| 2026-05-05 21:34 | -17.66630 | -173.52716 | 37485 ft | 485 kts | 216° |
| 2026-05-05 21:35 | -17.72443 | -173.56328 | 37483 ft | 485 kts | 216° |
| 2026-05-05 21:35 | -17.78218 | -173.59919 | 37479 ft | 485 kts | 216° |
| 2026-05-05 21:36 | -17.84020 | -173.63529 | 37483 ft | 485 kts | 216° |
| 2026-05-05 21:36 | -17.89826 | -173.67145 | 37479 ft | 485 kts | 216° |
| 2026-05-05 21:37 | -17.95628 | -173.70760 | 37478 ft | 484 kts | 216° |
| 2026-05-05 21:37 | -18.01422 | -173.74374 | 37480 ft | 483 kts | 216° |
| 2026-05-05 21:38 | -18.07211 | -173.77988 | 37477 ft | 484 kts | 216° |
| 2026-05-05 21:38 | -18.13005 | -173.81607 | 37476 ft | 484 kts | 216° |
| 2026-05-05 21:39 | -18.18788 | -173.85222 | 37477 ft | 484 kts | 216° |
| 2026-05-05 21:39 | -18.24541 | -173.88821 | 37475 ft | 484 kts | 216° |
| 2026-05-05 21:40 | -18.30326 | -173.92443 | 37481 ft | 484 kts | 216° |
| 2026-05-05 21:40 | -18.36122 | -173.96076 | 37475 ft | 486 kts | 216° |
| 2026-05-05 21:41 | -18.41935 | -173.99720 | 37474 ft | 485 kts | 216° |
| 2026-05-05 21:41 | -18.47714 | -174.03347 | 37478 ft | 483 kts | 216° |
| 2026-05-05 21:42 | -18.53490 | -174.06975 | 37470 ft | 483 kts | 216° |
| 2026-05-05 21:42 | -18.59274 | -174.10611 | 37472 ft | 484 kts | 216° |
| 2026-05-05 21:43 | -18.65030 | -174.14232 | 37476 ft | 484 kts | 216° |
| 2026-05-05 21:43 | -18.70813 | -174.17873 | 37476 ft | 484 kts | 216° |
| 2026-05-05 21:44 | -18.76602 | -174.21521 | 37477 ft | 484 kts | 216° |
| 2026-05-05 21:44 | -18.82380 | -174.25164 | 37475 ft | 483 kts | 216° |
| 2026-05-05 21:45 | -18.88155 | -174.28810 | 37478 ft | 483 kts | 216° |
| 2026-05-05 21:45 | -18.93927 | -174.32455 | 37472 ft | 483 kts | 216° |
| 2026-05-05 21:46 | -18.99643 | -174.36069 | 37473 ft | 482 kts | 216° |
| 2026-05-05 21:46 | -19.05398 | -174.39710 | 37475 ft | 481 kts | 216° |
| 2026-05-05 21:47 | -19.11138 | -174.43345 | 37477 ft | 481 kts | 216° |
| 2026-05-05 21:47 | -19.16875 | -174.46980 | 37479 ft | 481 kts | 216° |
| 2026-05-05 21:48 | -19.21647 | -174.50006 | 37482 ft | 481 kts | 216° |
| 2026-05-05 21:48 | -19.27387 | -174.53650 | 37478 ft | 481 kts | 216° |
| 2026-05-05 21:49 | -19.34086 | -174.57905 | 37481 ft | 480 kts | 216° |
| 2026-05-05 21:49 | -19.38857 | -174.60939 | 37479 ft | 481 kts | 216° |
| 2026-05-05 21:50 | -19.44589 | -174.64585 | 37483 ft | 480 kts | 216° |
| 2026-05-05 21:50 | -19.50313 | -174.68230 | 37479 ft | 480 kts | 216° |
| 2026-05-05 21:51 | -19.56045 | -174.71884 | 37473 ft | 480 kts | 216° |
| 2026-05-05 21:51 | -19.61779 | -174.75540 | 37466 ft | 481 kts | 216° |
| 2026-05-05 21:52 | -19.70375 | -174.81029 | 37475 ft | 480 kts | 216° |
| 2026-05-05 21:53 | -19.76089 | -174.84681 | 37489 ft | 479 kts | 216° |
| 2026-05-05 21:53 | -19.81767 | -174.88314 | 37487 ft | 479 kts | 216° |
| 2026-05-05 21:54 | -19.87477 | -174.91969 | 37486 ft | 478 kts | 216° |
| 2026-05-05 21:54 | -19.93157 | -174.95610 | 37490 ft | 477 kts | 216° |
| 2026-05-05 21:55 | -19.98844 | -174.99258 | 37488 ft | 478 kts | 216° |
| 2026-05-05 21:55 | -20.04683 | -175.02689 | 37490 ft | 480 kts | 213° |
| 2026-05-05 21:56 | -20.10555 | -175.06094 | 37494 ft | 481 kts | 213° |
| 2026-05-05 21:56 | -20.16442 | -175.09484 | 37497 ft | 480 kts | 213° |
| 2026-05-05 21:57 | -20.22307 | -175.12878 | 37496 ft | 480 kts | 213° |
| 2026-05-05 21:57 | -20.28185 | -175.16276 | 37500 ft | 481 kts | 213° |
| 2026-05-05 21:58 | -20.34061 | -175.19679 | 37499 ft | 483 kts | 213° |
| 2026-05-05 21:58 | -20.39986 | -175.23112 | 37504 ft | 484 kts | 213° |
| 2026-05-05 21:59 | -20.45862 | -175.26521 | 37507 ft | 484 kts | 213° |
| 2026-05-05 21:59 | -20.51796 | -175.29966 | 37514 ft | 486 kts | 213° |
| 2026-05-05 22:00 | -20.57746 | -175.33423 | 37516 ft | 487 kts | 213° |
| 2026-05-05 22:00 | -20.63707 | -175.36890 | 37519 ft | 489 kts | 213° |
| 2026-05-05 22:01 | -20.69680 | -175.40366 | 37524 ft | 490 kts | 213° |
| 2026-05-05 22:01 | -20.75672 | -175.43857 | 37526 ft | 490 kts | 213° |
| 2026-05-05 22:02 | -20.81676 | -175.47358 | 37532 ft | 490 kts | 213° |
| 2026-05-05 22:02 | -20.87661 | -175.50850 | 37533 ft | 490 kts | 213° |
| 2026-05-05 22:03 | -20.93609 | -175.54327 | 37547 ft | 492 kts | 213° |
| 2026-05-05 22:03 | -20.99634 | -175.57849 | 37537 ft | 494 kts | 213° |
| 2026-05-05 22:04 | -21.05664 | -175.61379 | 37543 ft | 494 kts | 213° |
| 2026-05-05 22:04 | -21.11707 | -175.64919 | 37552 ft | 496 kts | 213° |
| 2026-05-05 22:05 | -21.17779 | -175.68479 | 37552 ft | 497 kts | 213° |
| 2026-05-05 22:05 | -21.23844 | -175.72039 | 37565 ft | 498 kts | 213° |
| 2026-05-05 22:06 | -21.29946 | -175.75624 | 37560 ft | 499 kts | 213° |
| 2026-05-05 22:06 | -21.36007 | -175.79188 | 37569 ft | 501 kts | 213° |
| 2026-05-05 22:07 | -21.42121 | -175.82787 | 37577 ft | 501 kts | 213° |
| 2026-05-05 22:07 | -21.48237 | -175.86390 | 37575 ft | 502 kts | 213° |
| 2026-05-05 22:08 | -21.54373 | -175.90009 | 37578 ft | 503 kts | 213° |
| 2026-05-05 22:08 | -21.60531 | -175.93644 | 37582 ft | 504 kts | 214° |
| 2026-05-05 22:09 | -21.66646 | -175.97258 | 37585 ft | 505 kts | 214° |
| 2026-05-05 22:09 | -21.72822 | -176.00911 | 37585 ft | 506 kts | 214° |
| 2026-05-05 22:10 | -21.79007 | -176.04572 | 37586 ft | 507 kts | 214° |
| 2026-05-05 22:10 | -21.85186 | -176.08234 | 37590 ft | 508 kts | 214° |
| 2026-05-05 22:11 | -21.91392 | -176.11916 | 37595 ft | 508 kts | 214° |
| 2026-05-05 22:11 | -21.97581 | -176.15591 | 37595 ft | 508 kts | 214° |
| 2026-05-05 22:12 | -22.03775 | -176.19273 | 37600 ft | 509 kts | 214° |
| 2026-05-05 22:12 | -22.09945 | -176.22945 | 37602 ft | 510 kts | 214° |
| 2026-05-05 22:13 | -22.16163 | -176.26648 | 37603 ft | 511 kts | 214° |
| 2026-05-05 22:13 | -22.22392 | -176.30362 | 37608 ft | 512 kts | 214° |
| 2026-05-05 22:14 | -22.28624 | -176.34082 | 37611 ft | 512 kts | 214° |
| 2026-05-05 22:14 | -22.34865 | -176.37811 | 37620 ft | 513 kts | 214° |
| 2026-05-05 22:15 | -22.41117 | -176.41550 | 37611 ft | 513 kts | 214° |
| 2026-05-05 22:15 | -22.47361 | -176.45288 | 37613 ft | 513 kts | 214° |
| 2026-05-05 22:16 | -22.53617 | -176.49038 | 37627 ft | 513 kts | 214° |
| 2026-05-05 22:16 | -22.59829 | -176.52765 | 37622 ft | 513 kts | 214° |
| 2026-05-05 22:17 | -22.66071 | -176.56513 | 37625 ft | 513 kts | 214° |
| 2026-05-05 22:17 | -22.72289 | -176.60251 | 37627 ft | 513 kts | 213° |
| 2026-05-05 22:18 | -22.78568 | -176.64031 | 37623 ft | 513 kts | 213° |
| 2026-05-05 22:18 | -22.84809 | -176.67791 | 37625 ft | 513 kts | 213° |
| 2026-05-05 22:19 | -22.91056 | -176.71559 | 37626 ft | 513 kts | 213° |
| 2026-05-05 22:19 | -22.97307 | -176.75332 | 37636 ft | 514 kts | 213° |
| 2026-05-05 22:20 | -23.03561 | -176.79113 | 37627 ft | 515 kts | 213° |
| 2026-05-05 22:20 | -23.09780 | -176.82876 | 37634 ft | 516 kts | 213° |
| 2026-05-05 22:21 | -23.16051 | -176.86674 | 37646 ft | 515 kts | 213° |
| 2026-05-05 22:21 | -23.22310 | -176.90469 | 37642 ft | 515 kts | 213° |
| 2026-05-05 22:22 | -23.28564 | -176.94265 | 37641 ft | 515 kts | 213° |
| 2026-05-05 22:22 | -23.34821 | -176.98068 | 37650 ft | 514 kts | 213° |
| 2026-05-05 22:23 | -23.41069 | -177.01869 | 37656 ft | 514 kts | 213° |
| 2026-05-05 22:23 | -23.47314 | -177.05672 | 37648 ft | 513 kts | 213° |
| 2026-05-05 22:24 | -23.53502 | -177.09445 | 37657 ft | 513 kts | 213° |
| 2026-05-05 22:24 | -23.59733 | -177.13248 | 37658 ft | 513 kts | 213° |
| 2026-05-05 22:25 | -23.65963 | -177.17054 | 37666 ft | 513 kts | 213° |
| 2026-05-05 22:25 | -23.72154 | -177.20841 | 37668 ft | 512 kts | 213° |
| 2026-05-05 22:26 | -23.78412 | -177.24673 | 37672 ft | 512 kts | 213° |
| 2026-05-05 22:26 | -23.84585 | -177.28457 | 37677 ft | 512 kts | 213° |
| 2026-05-05 22:27 | -23.90785 | -177.32262 | 37683 ft | 511 kts | 213° |
| 2026-05-05 22:27 | -23.96987 | -177.36073 | 37686 ft | 511 kts | 213° |
| 2026-05-05 22:28 | -24.03185 | -177.39885 | 37684 ft | 511 kts | 213° |
| 2026-05-05 22:28 | -24.09335 | -177.43671 | 37690 ft | 510 kts | 212° |
| 2026-05-05 22:29 | -24.15526 | -177.47488 | 37691 ft | 510 kts | 212° |
| 2026-05-05 22:29 | -24.21715 | -177.51309 | 37695 ft | 511 kts | 212° |
| 2026-05-05 22:30 | -24.27904 | -177.55132 | 37694 ft | 510 kts | 212° |
| 2026-05-05 22:30 | -24.34094 | -177.58960 | 37698 ft | 511 kts | 212° |
| 2026-05-05 22:31 | -24.40287 | -177.62796 | 37698 ft | 511 kts | 212° |
| 2026-05-05 22:31 | -24.46475 | -177.66631 | 37706 ft | 511 kts | 212° |
| 2026-05-05 22:32 | -24.52632 | -177.70453 | 37705 ft | 511 kts | 212° |
| 2026-05-05 22:32 | -24.58824 | -177.74301 | 37708 ft | 511 kts | 212° |
| 2026-05-05 22:33 | -24.65015 | -177.78151 | 37713 ft | 511 kts | 212° |
| 2026-05-05 22:33 | -24.71210 | -177.82010 | 37712 ft | 511 kts | 212° |
| 2026-05-05 22:34 | -24.77395 | -177.85866 | 37716 ft | 511 kts | 212° |
| 2026-05-05 22:34 | -24.83581 | -177.89727 | 37723 ft | 511 kts | 212° |
| 2026-05-05 22:35 | -24.89768 | -177.93595 | 37722 ft | 511 kts | 212° |
| 2026-05-05 22:35 | -24.95921 | -177.97444 | 37732 ft | 511 kts | 212° |
| 2026-05-05 22:36 | -25.02162 | -178.01207 | 37758 ft | 512 kts | 210° |
| 2026-05-05 22:36 | -25.08450 | -178.04835 | 37729 ft | 508 kts | 211° |
| 2026-05-05 22:37 | -25.14744 | -178.08418 | 37737 ft | 510 kts | 210° |
| 2026-05-05 22:37 | -25.21038 | -178.12025 | 37745 ft | 509 kts | 210° |
| 2026-05-05 22:38 | -25.27334 | -178.15633 | 37738 ft | 510 kts | 210° |
| 2026-05-05 22:38 | -25.33640 | -178.19250 | 37746 ft | 510 kts | 210° |
| 2026-05-05 22:39 | -25.38873 | -178.22259 | 37743 ft | 510 kts | 210° |
| 2026-05-05 22:39 | -25.45178 | -178.25881 | 37749 ft | 510 kts | 210° |
| 2026-05-05 22:40 | -25.51483 | -178.29513 | 37758 ft | 511 kts | 210° |
| 2026-05-05 22:40 | -25.57790 | -178.33146 | 37756 ft | 511 kts | 210° |
| 2026-05-05 22:41 | -25.64093 | -178.36785 | 37757 ft | 511 kts | 210° |
| 2026-05-05 22:41 | -25.70366 | -178.40408 | 37762 ft | 511 kts | 210° |
| 2026-05-05 22:42 | -25.76673 | -178.44057 | 37762 ft | 511 kts | 210° |
| 2026-05-05 22:42 | -25.82977 | -178.47707 | 37770 ft | 511 kts | 210° |
| 2026-05-05 22:43 | -25.89279 | -178.51362 | 37769 ft | 511 kts | 210° |
| 2026-05-05 22:43 | -25.95582 | -178.55020 | 37772 ft | 510 kts | 210° |
| 2026-05-05 22:44 | -26.01873 | -178.58678 | 37773 ft | 510 kts | 210° |
| 2026-05-05 22:44 | -26.08169 | -178.62341 | 37777 ft | 510 kts | 210° |
| 2026-05-05 22:45 | -26.14455 | -178.66005 | 37782 ft | 510 kts | 210° |
| 2026-05-05 22:45 | -26.20735 | -178.69668 | 37782 ft | 509 kts | 210° |
| 2026-05-05 22:46 | -26.26979 | -178.73315 | 37782 ft | 509 kts | 210° |
| 2026-05-05 22:46 | -26.33249 | -178.76982 | 37785 ft | 509 kts | 210° |
| 2026-05-05 22:47 | -26.39528 | -178.80658 | 37786 ft | 509 kts | 210° |
| 2026-05-05 22:47 | -26.45800 | -178.84336 | 37796 ft | 509 kts | 210° |
| 2026-05-05 22:48 | -26.52058 | -178.88010 | 37796 ft | 509 kts | 210° |
| 2026-05-05 22:48 | -26.58288 | -178.91670 | 37795 ft | 509 kts | 210° |
| 2026-05-05 22:49 | -26.64547 | -178.95354 | 37789 ft | 509 kts | 210° |
| 2026-05-05 22:49 | -26.70814 | -178.99046 | 37787 ft | 509 kts | 210° |
| 2026-05-05 22:50 | -26.77082 | -179.02744 | 37798 ft | 509 kts | 210° |
| 2026-05-05 22:50 | -26.83351 | -179.06447 | 37801 ft | 509 kts | 210° |
| 2026-05-05 22:51 | -26.89610 | -179.10149 | 37803 ft | 509 kts | 210° |
| 2026-05-05 22:51 | -26.95829 | -179.13830 | 37805 ft | 508 kts | 210° |
| 2026-05-05 22:52 | -27.02077 | -179.17537 | 37812 ft | 508 kts | 210° |
| 2026-05-05 22:52 | -27.08328 | -179.21245 | 37814 ft | 507 kts | 211° |
| 2026-05-05 22:53 | -27.14573 | -179.24959 | 37818 ft | 507 kts | 210° |
| 2026-05-05 22:53 | -27.20803 | -179.28665 | 37818 ft | 506 kts | 211° |
| 2026-05-05 22:54 | -27.26981 | -179.32349 | 37819 ft | 505 kts | 210° |
| 2026-05-05 22:54 | -27.33181 | -179.36048 | 37820 ft | 504 kts | 211° |
| 2026-05-05 22:55 | -27.39414 | -179.39771 | 37822 ft | 504 kts | 211° |
| 2026-05-05 22:55 | -27.45560 | -179.43448 | 37823 ft | 503 kts | 210° |
| 2026-05-05 22:56 | -27.51729 | -179.47142 | 37829 ft | 501 kts | 211° |
| 2026-05-05 22:56 | -27.57891 | -179.50838 | 37832 ft | 501 kts | 210° |
| 2026-05-05 22:57 | -27.64039 | -179.54531 | 37837 ft | 499 kts | 210° |
| 2026-05-05 22:57 | -27.70168 | -179.58214 | 37834 ft | 499 kts | 210° |
| 2026-05-05 22:58 | -27.76293 | -179.61903 | 37838 ft | 498 kts | 210° |
| 2026-05-05 22:58 | -27.82363 | -179.65562 | 37840 ft | 497 kts | 210° |
| 2026-05-05 22:59 | -27.88450 | -179.69237 | 37843 ft | 495 kts | 210° |
| 2026-05-05 22:59 | -27.94525 | -179.72908 | 37842 ft | 495 kts | 210° |
| 2026-05-05 23:00 | -28.03626 | -179.78416 | 37848 ft | 493 kts | 210° |
| 2026-05-05 23:00 | -28.09674 | -179.82085 | 37855 ft | 492 kts | 210° |
| 2026-05-05 23:01 | -28.15670 | -179.85723 | 37855 ft | 491 kts | 210° |
| 2026-05-05 23:01 | -28.21690 | -179.89384 | 37862 ft | 490 kts | 210° |
| 2026-05-05 23:02 | -28.27680 | -179.93029 | 37862 ft | 489 kts | 210° |
| 2026-05-05 23:02 | -28.33671 | -179.96680 | 37859 ft | 487 kts | 210° |
| 2026-05-05 23:03 | -28.39637 | 179.99678 | 37857 ft | 486 kts | 210° |
| 2026-05-05 23:03 | -28.45589 | 179.96041 | 37866 ft | 486 kts | 210° |
| 2026-05-05 23:04 | -28.51541 | 179.92401 | 37869 ft | 485 kts | 210° |
| 2026-05-05 23:04 | -28.57489 | 179.88758 | 37869 ft | 485 kts | 210° |
| 2026-05-05 23:05 | -28.63388 | 179.85138 | 37874 ft | 485 kts | 210° |
| 2026-05-05 23:05 | -28.69318 | 179.81498 | 37877 ft | 484 kts | 210° |
| 2026-05-05 23:06 | -28.75238 | 179.77856 | 37872 ft | 483 kts | 210° |
| 2026-05-05 23:06 | -28.81165 | 179.74207 | 37881 ft | 483 kts | 210° |
| 2026-05-05 23:07 | -28.87085 | 179.70557 | 37884 ft | 483 kts | 210° |
| 2026-05-05 23:07 | -28.92999 | 179.66907 | 37883 ft | 483 kts | 210° |
| 2026-05-05 23:08 | -28.98861 | 179.63280 | 37883 ft | 482 kts | 210° |
| 2026-05-05 23:08 | -29.04769 | 179.59625 | 37883 ft | 482 kts | 210° |
| 2026-05-05 23:09 | -29.10657 | 179.55975 | 37888 ft | 481 kts | 210° |
| 2026-05-05 23:09 | -29.16535 | 179.52327 | 37889 ft | 481 kts | 210° |
| 2026-05-05 23:10 | -29.22417 | 179.48673 | 37893 ft | 480 kts | 210° |
| 2026-05-05 23:10 | -29.28285 | 179.45020 | 37894 ft | 479 kts | 210° |
| 2026-05-05 23:11 | -29.34151 | 179.41366 | 37901 ft | 479 kts | 210° |
| 2026-05-05 23:11 | -29.39972 | 179.37734 | 37901 ft | 479 kts | 210° |
| 2026-05-05 23:12 | -29.45819 | 179.34081 | 37897 ft | 479 kts | 210° |
| 2026-05-05 23:12 | -29.51663 | 179.30426 | 37898 ft | 478 kts | 210° |
| 2026-05-05 23:13 | -29.57518 | 179.26759 | 37900 ft | 478 kts | 210° |
| 2026-05-05 23:13 | -29.63342 | 179.23106 | 37902 ft | 477 kts | 210° |
| 2026-05-05 23:14 | -29.69176 | 179.19442 | 37910 ft | 477 kts | 210° |
| 2026-05-05 23:14 | -29.75004 | 179.15777 | 37907 ft | 477 kts | 210° |
| 2026-05-05 23:15 | -29.80831 | 179.12108 | 37905 ft | 477 kts | 210° |
| 2026-05-05 23:15 | -29.86615 | 179.08460 | 37908 ft | 477 kts | 210° |
| 2026-05-05 23:16 | -29.92428 | 179.04790 | 37910 ft | 476 kts | 210° |
| 2026-05-05 23:16 | -29.98243 | 179.01114 | 37917 ft | 476 kts | 210° |
| 2026-05-05 23:17 | -30.04288 | 178.97976 | 37918 ft | 477 kts | 204° |
| 2026-05-05 23:17 | -30.10425 | 178.95026 | 37917 ft | 477 kts | 204° |
| 2026-05-05 23:18 | -30.16544 | 178.92120 | 37919 ft | 477 kts | 204° |
| 2026-05-05 23:18 | -30.22676 | 178.89182 | 37918 ft | 477 kts | 204° |
| 2026-05-05 23:19 | -30.28816 | 178.86248 | 37924 ft | 477 kts | 204° |
| 2026-05-05 23:19 | -30.34956 | 178.83304 | 37926 ft | 476 kts | 204° |
| 2026-05-05 23:20 | -30.41038 | 178.80387 | 37926 ft | 477 kts | 204° |
| 2026-05-05 23:20 | -30.47173 | 178.77438 | 37925 ft | 477 kts | 204° |
| 2026-05-05 23:21 | -30.53305 | 178.74488 | 37924 ft | 477 kts | 204° |
| 2026-05-05 23:21 | -30.59442 | 178.71532 | 37929 ft | 477 kts | 204° |
| 2026-05-05 23:22 | -30.65574 | 178.68572 | 37932 ft | 477 kts | 204° |
| 2026-05-05 23:22 | -30.71699 | 178.65614 | 37932 ft | 477 kts | 204° |
| 2026-05-05 23:23 | -30.77789 | 178.62667 | 37939 ft | 477 kts | 204° |
| 2026-05-05 23:23 | -30.83919 | 178.59698 | 37936 ft | 477 kts | 204° |
| 2026-05-05 23:24 | -30.90041 | 178.56728 | 37940 ft | 477 kts | 204° |
| 2026-05-05 23:24 | -30.96169 | 178.53751 | 37938 ft | 477 kts | 204° |
| 2026-05-05 23:25 | -31.02287 | 178.50775 | 37939 ft | 477 kts | 204° |
| 2026-05-05 23:25 | -31.08412 | 178.47790 | 37942 ft | 476 kts | 204° |
| 2026-05-05 23:26 | -31.14534 | 178.44804 | 37939 ft | 476 kts | 204° |
| 2026-05-05 23:26 | -31.20645 | 178.41819 | 37946 ft | 476 kts | 204° |
| 2026-05-05 23:27 | -31.26752 | 178.38831 | 37944 ft | 476 kts | 204° |
| 2026-05-05 23:27 | -31.32821 | 178.35858 | 37947 ft | 476 kts | 204° |
| 2026-05-05 23:28 | -31.38926 | 178.32862 | 37954 ft | 476 kts | 204° |
| 2026-05-05 23:28 | -31.45053 | 178.29853 | 37952 ft | 476 kts | 204° |
| 2026-05-05 23:29 | -31.51161 | 178.26847 | 37955 ft | 476 kts | 204° |
| 2026-05-05 23:29 | -31.57228 | 178.23858 | 37957 ft | 476 kts | 204° |
| 2026-05-05 23:30 | -31.62340 | 178.21336 | 37938 ft | 476 kts | 204° |
| 2026-05-05 23:30 | -31.69430 | 178.17834 | 37955 ft | 475 kts | 204° |
| 2026-05-05 23:31 | -31.75528 | 178.14816 | 37954 ft | 475 kts | 204° |
| 2026-05-05 23:31 | -31.80626 | 178.12290 | 37958 ft | 475 kts | 204° |
| 2026-05-05 23:32 | -31.86679 | 178.09288 | 37957 ft | 475 kts | 204° |
| 2026-05-05 23:32 | -31.92767 | 178.06263 | 37962 ft | 475 kts | 204° |
| 2026-05-05 23:33 | -31.98851 | 178.03236 | 37971 ft | 474 kts | 204° |
| 2026-05-05 23:33 | -32.04928 | 178.00208 | 37969 ft | 474 kts | 204° |
| 2026-05-05 23:34 | -32.11016 | 177.97171 | 37969 ft | 474 kts | 204° |
| 2026-05-05 23:34 | -32.17085 | 177.94138 | 37970 ft | 474 kts | 204° |
| 2026-05-05 23:35 | -32.23159 | 177.91098 | 37972 ft | 474 kts | 204° |
| 2026-05-05 23:35 | -32.29240 | 177.88051 | 37967 ft | 474 kts | 204° |
| 2026-05-05 23:36 | -32.35307 | 177.85006 | 37978 ft | 474 kts | 204° |
| 2026-05-05 23:36 | -32.41342 | 177.81972 | 37985 ft | 474 kts | 204° |
| 2026-05-05 23:37 | -32.47399 | 177.78923 | 37980 ft | 473 kts | 204° |
| 2026-05-05 23:37 | -32.53464 | 177.75866 | 37980 ft | 473 kts | 204° |
| 2026-05-05 23:38 | -32.59521 | 177.72808 | 37980 ft | 473 kts | 204° |
| 2026-05-05 23:38 | -32.65587 | 177.69742 | 37979 ft | 473 kts | 204° |
| 2026-05-05 23:39 | -32.71607 | 177.66694 | 37975 ft | 473 kts | 204° |
| 2026-05-05 23:39 | -32.77666 | 177.63621 | 37989 ft | 473 kts | 204° |
| 2026-05-05 23:40 | -32.83719 | 177.60547 | 37988 ft | 473 kts | 204° |
| 2026-05-05 23:40 | -32.89770 | 177.57470 | 37980 ft | 473 kts | 204° |
| 2026-05-05 23:41 | -32.95829 | 177.54384 | 37987 ft | 473 kts | 204° |
| 2026-05-05 23:41 | -33.01889 | 177.51293 | 37982 ft | 473 kts | 204° |
| 2026-05-05 23:42 | -33.07940 | 177.48201 | 37992 ft | 473 kts | 204° |
| 2026-05-05 23:42 | -33.13954 | 177.45124 | 37990 ft | 473 kts | 204° |
| 2026-05-05 23:43 | -33.20008 | 177.42022 | 37994 ft | 473 kts | 204° |
| 2026-05-05 23:43 | -33.26062 | 177.38916 | 37992 ft | 473 kts | 204° |
| 2026-05-05 23:44 | -33.32100 | 177.35812 | 37995 ft | 473 kts | 204° |
| 2026-05-05 23:44 | -33.38153 | 177.32697 | 37992 ft | 472 kts | 204° |
| 2026-05-05 23:45 | -33.44187 | 177.29586 | 37997 ft | 472 kts | 204° |
| 2026-05-05 23:45 | -33.50187 | 177.26488 | 37999 ft | 472 kts | 204° |
| 2026-05-05 23:46 | -33.56228 | 177.23364 | 37995 ft | 472 kts | 204° |
| 2026-05-05 23:46 | -33.62255 | 177.20243 | 37998 ft | 472 kts | 204° |
| 2026-05-05 23:47 | -33.68290 | 177.17113 | 38000 ft | 472 kts | 204° |
| 2026-05-05 23:47 | -33.74328 | 177.13977 | 38001 ft | 472 kts | 204° |
| 2026-05-05 23:48 | -33.80358 | 177.10839 | 38007 ft | 472 kts | 204° |
| 2026-05-05 23:48 | -33.86359 | 177.07713 | 38005 ft | 473 kts | 204° |
| 2026-05-05 23:49 | -33.92387 | 177.04566 | 38011 ft | 473 kts | 204° |
| 2026-05-05 23:49 | -33.98421 | 177.01413 | 38013 ft | 472 kts | 204° |
| 2026-05-05 23:50 | -34.04452 | 176.98256 | 38005 ft | 472 kts | 204° |
| 2026-05-05 23:50 | -34.10481 | 176.95095 | 38014 ft | 472 kts | 204° |
| 2026-05-05 23:51 | -34.16505 | 176.91931 | 38007 ft | 472 kts | 204° |
| 2026-05-05 23:51 | -34.22518 | 176.88769 | 38012 ft | 471 kts | 204° |
| 2026-05-05 23:52 | -34.28494 | 176.85621 | 38011 ft | 471 kts | 204° |
| 2026-05-05 23:52 | -34.34515 | 176.82444 | 38011 ft | 471 kts | 204° |
| 2026-05-05 23:53 | -34.40529 | 176.79266 | 38017 ft | 471 kts | 204° |
| 2026-05-05 23:53 | -34.46538 | 176.76085 | 38014 ft | 471 kts | 204° |
| 2026-05-05 23:54 | -34.52557 | 176.72895 | 38021 ft | 472 kts | 204° |
| 2026-05-05 23:54 | -34.58572 | 176.69702 | 38017 ft | 472 kts | 204° |
| 2026-05-05 23:55 | -34.64584 | 176.66505 | 38018 ft | 472 kts | 205° |
| 2026-05-05 23:55 | -34.70600 | 176.63301 | 38018 ft | 471 kts | 205° |
| 2026-05-05 23:56 | -34.76579 | 176.60111 | 38020 ft | 471 kts | 205° |
| 2026-05-05 23:56 | -34.82584 | 176.56902 | 38019 ft | 470 kts | 205° |
| 2026-05-05 23:57 | -34.88578 | 176.53694 | 38015 ft | 470 kts | 205° |
| 2026-05-05 23:57 | -34.94580 | 176.50477 | 38017 ft | 471 kts | 205° |
| 2026-05-05 23:58 | -35.00583 | 176.47254 | 38024 ft | 471 kts | 205° |
| 2026-05-05 23:58 | -35.06581 | 176.44029 | 38024 ft | 471 kts | 205° |
| 2026-05-05 23:59 | -35.12582 | 176.40797 | 38020 ft | 471 kts | 205° |
| 2026-05-05 23:59 | -35.18576 | 176.37563 | 38024 ft | 471 kts | 205° |
| 2026-05-06 00:00 | -35.24537 | 176.34342 | 38024 ft | 471 kts | 205° |
| 2026-05-06 00:00 | -35.30522 | 176.31102 | 38023 ft | 471 kts | 205° |
| 2026-05-06 00:01 | -35.36519 | 176.27852 | 38026 ft | 470 kts | 205° |
| 2026-05-06 00:01 | -35.42503 | 176.24602 | 38028 ft | 471 kts | 205° |
| 2026-05-06 00:02 | -35.48497 | 176.21343 | 38016 ft | 470 kts | 205° |
| 2026-05-06 00:02 | -35.54437 | 176.18106 | 38020 ft | 470 kts | 205° |
| 2026-05-06 00:03 | -35.60420 | 176.14842 | 38031 ft | 471 kts | 205° |
| 2026-05-06 00:03 | -35.66410 | 176.11568 | 38029 ft | 471 kts | 205° |
| 2026-05-06 00:04 | -35.72397 | 176.08290 | 38028 ft | 470 kts | 205° |
| 2026-05-06 00:04 | -35.78372 | 176.05014 | 38033 ft | 471 kts | 205° |
| 2026-05-06 00:05 | -35.87346 | 176.00082 | 38031 ft | 470 kts | 205° |
| 2026-05-06 00:06 | -35.93317 | 175.96795 | 38030 ft | 470 kts | 205° |
| 2026-05-06 00:06 | -35.99293 | 175.93498 | 38030 ft | 471 kts | 205° |
| 2026-05-06 00:07 | -36.05270 | 175.90196 | 38030 ft | 470 kts | 205° |
| 2026-05-06 00:07 | -36.11248 | 175.86888 | 38027 ft | 471 kts | 205° |
| 2026-05-06 00:08 | -36.17192 | 175.83593 | 38032 ft | 471 kts | 205° |
| 2026-05-06 00:08 | -36.23177 | 175.80270 | 38037 ft | 471 kts | 205° |
| 2026-05-06 00:09 | -36.29169 | 175.76937 | 38030 ft | 471 kts | 206° |
| 2026-05-06 00:09 | -36.35152 | 175.73603 | 38029 ft | 471 kts | 206° |
| 2026-05-06 00:10 | -36.41119 | 175.70273 | 38029 ft | 470 kts | 206° |
| 2026-05-06 00:10 | -36.47093 | 175.66934 | 38031 ft | 470 kts | 206° |
| 2026-05-06 00:11 | -36.53058 | 175.63593 | 38034 ft | 470 kts | 206° |
| 2026-05-06 00:11 | -36.58988 | 175.60267 | 38036 ft | 470 kts | 206° |
| 2026-05-06 00:12 | -36.64948 | 175.56919 | 38033 ft | 470 kts | 206° |
| 2026-05-06 00:12 | -36.70913 | 175.53562 | 38033 ft | 469 kts | 206° |
| 2026-05-06 00:13 | -36.76850 | 175.50214 | 38037 ft | 469 kts | 206° |
| 2026-05-06 00:13 | -36.82810 | 175.46848 | 38034 ft | 470 kts | 206° |
| 2026-05-06 00:14 | -36.88764 | 175.43480 | 38036 ft | 470 kts | 206° |
| 2026-05-06 00:14 | -36.94719 | 175.40105 | 38031 ft | 470 kts | 206° |
| 2026-05-06 00:15 | -37.00636 | 175.36746 | 38024 ft | 469 kts | 206° |
| 2026-05-06 00:15 | -37.06590 | 175.33360 | 38023 ft | 470 kts | 206° |
| 2026-05-06 00:16 | -37.12541 | 175.29970 | 38023 ft | 470 kts | 206° |
| 2026-05-06 00:16 | -37.18502 | 175.26569 | 38021 ft | 471 kts | 206° |
| 2026-05-06 00:17 | -37.24466 | 175.23160 | 38020 ft | 471 kts | 206° |
| 2026-05-06 00:17 | -37.30423 | 175.19748 | 38020 ft | 471 kts | 206° |
| 2026-05-06 00:18 | -37.36392 | 175.16324 | 38026 ft | 471 kts | 206° |
| 2026-05-06 00:18 | -37.42349 | 175.12901 | 38027 ft | 471 kts | 206° |
| 2026-05-06 00:19 | -37.47313 | 175.10044 | 38027 ft | 470 kts | 206° |
| 2026-05-06 00:19 | -37.53259 | 175.06617 | 38022 ft | 469 kts | 206° |
| 2026-05-06 00:20 | -37.60171 | 175.02624 | 38022 ft | 469 kts | 206° |
| 2026-05-06 00:20 | -37.66111 | 174.99187 | 38027 ft | 470 kts | 206° |
| 2026-05-06 00:21 | -37.71087 | 174.96302 | 38022 ft | 470 kts | 206° |
| 2026-05-06 00:21 | -37.77030 | 174.92852 | 38022 ft | 470 kts | 206° |
| 2026-05-06 00:22 | -37.82963 | 174.89401 | 38019 ft | 470 kts | 206° |
| 2026-05-06 00:22 | -37.88869 | 174.85960 | 38020 ft | 470 kts | 206° |
| 2026-05-06 00:23 | -37.94811 | 174.82492 | 38021 ft | 470 kts | 206° |
| 2026-05-06 00:23 | -38.00754 | 174.79017 | 38021 ft | 470 kts | 206° |
| 2026-05-06 00:24 | -38.06687 | 174.75542 | 38020 ft | 470 kts | 206° |
| 2026-05-06 00:24 | -38.12620 | 174.72060 | 38022 ft | 469 kts | 206° |
| 2026-05-06 00:25 | -38.18512 | 174.68596 | 38018 ft | 470 kts | 206° |
| 2026-05-06 00:25 | -38.24439 | 174.65105 | 38018 ft | 470 kts | 206° |
| 2026-05-06 00:26 | -38.30380 | 174.61601 | 38017 ft | 471 kts | 206° |
| 2026-05-06 00:26 | -38.36324 | 174.58087 | 38013 ft | 471 kts | 206° |
| 2026-05-06 00:27 | -38.42255 | 174.54575 | 38012 ft | 468 kts | 206° |
| 2026-05-06 00:27 | -38.48174 | 174.51063 | 38013 ft | 469 kts | 206° |
| 2026-05-06 00:28 | -38.54061 | 174.47565 | 38016 ft | 469 kts | 206° |
| 2026-05-06 00:28 | -38.59982 | 174.44039 | 38016 ft | 469 kts | 207° |
| 2026-05-06 00:29 | -38.65906 | 174.40506 | 38013 ft | 470 kts | 207° |
| 2026-05-06 00:29 | -38.71828 | 174.36967 | 38015 ft | 470 kts | 207° |
| 2026-05-06 00:30 | -38.77756 | 174.33418 | 38008 ft | 470 kts | 207° |
| 2026-05-06 00:30 | -38.83684 | 174.29863 | 38010 ft | 470 kts | 207° |
| 2026-05-06 00:31 | -38.89606 | 174.26304 | 38011 ft | 470 kts | 207° |